<?xml version="1.0" encoding="UTF-8" standalone="no" ?>
<gpx xmlns="http://www.topografix.com/GPX/1/1" xmlns:xsi="http://www.w3.org/2001/XMLSchema-instance" xsi:schemaLocation="http://www.topografix.com/GPX/1/1 http://www.topografix.com/GPX/1/1/gpx.xsd" version="1.1" creator="VisuGPX - https://www.visugpx.com">
  <metadata>
    <name>pelussin st sabin 20 kms</name>
    <desc><![CDATA[Des vues formidables par beau temps le Rhône les Alpes le Vercor]]></desc>
  </metadata>
  <trk>
    <name><![CDATA[20180812184731-kiZME]]></name>
    <trkseg>
      <trkpt lat="45.41703" lon="4.67909">
        <ele>434</ele>
      </trkpt>
      <trkpt lat="45.41418" lon="4.67827">
        <ele>425</ele>
      </trkpt>
      <trkpt lat="45.41379" lon="4.67831">
        <ele>425</ele>
      </trkpt>
      <trkpt lat="45.41313" lon="4.67887">
        <ele>430</ele>
      </trkpt>
      <trkpt lat="45.41269" lon="4.67891">
        <ele>434</ele>
      </trkpt>
      <trkpt lat="45.41157" lon="4.67988">
        <ele>452</ele>
      </trkpt>
      <trkpt lat="45.41067" lon="4.68032">
        <ele>454</ele>
      </trkpt>
      <trkpt lat="45.41048" lon="4.68041">
        <ele>454</ele>
      </trkpt>
      <trkpt lat="45.40999" lon="4.6806">
        <ele>452</ele>
        <time>2018-08-12T07:47:52Z</time>
      </trkpt>
      <trkpt lat="45.40934" lon="4.68079">
        <ele>452</ele>
        <time>2018-08-12T07:48:46Z</time>
      </trkpt>
      <trkpt lat="45.40914" lon="4.68084">
        <ele>449</ele>
        <time>2018-08-12T07:49:04Z</time>
      </trkpt>
      <trkpt lat="45.40888" lon="4.68089">
        <ele>447</ele>
        <time>2018-08-12T07:49:24Z</time>
      </trkpt>
      <trkpt lat="45.40858" lon="4.68091">
        <ele>446</ele>
        <time>2018-08-12T07:49:47Z</time>
      </trkpt>
      <trkpt lat="45.40831" lon="4.68096">
        <ele>446</ele>
        <time>2018-08-12T07:50:08Z</time>
      </trkpt>
      <trkpt lat="45.40805" lon="4.68097">
        <ele>444</ele>
        <time>2018-08-12T07:50:27Z</time>
      </trkpt>
      <trkpt lat="45.40777" lon="4.68096">
        <ele>444</ele>
        <time>2018-08-12T07:50:47Z</time>
      </trkpt>
      <trkpt lat="45.40753" lon="4.68095">
        <ele>445</ele>
        <time>2018-08-12T07:51:04Z</time>
      </trkpt>
      <trkpt lat="45.4073" lon="4.68094">
        <ele>446</ele>
        <time>2018-08-12T07:51:22Z</time>
      </trkpt>
      <trkpt lat="45.40721" lon="4.68096">
        <ele>446</ele>
        <time>2018-08-12T07:51:28Z</time>
      </trkpt>
      <trkpt lat="45.40675" lon="4.68114">
        <ele>447</ele>
      </trkpt>
      <trkpt lat="45.40612" lon="4.68064">
        <ele>458</ele>
      </trkpt>
      <trkpt lat="45.40549" lon="4.68035">
        <ele>459</ele>
      </trkpt>
      <trkpt lat="45.40478" lon="4.67997">
        <ele>464</ele>
      </trkpt>
      <trkpt lat="45.40406" lon="4.67993">
        <ele>463</ele>
      </trkpt>
      <trkpt lat="45.40313" lon="4.68035">
        <ele>460</ele>
      </trkpt>
      <trkpt lat="45.40219" lon="4.68151">
        <ele>456</ele>
      </trkpt>
      <trkpt lat="45.40149" lon="4.68249">
        <ele>458</ele>
      </trkpt>
      <trkpt lat="45.40137" lon="4.68231">
        <ele>460</ele>
        <time>2018-08-12T08:00:55Z</time>
      </trkpt>
      <trkpt lat="45.40128" lon="4.68208">
        <ele>461</ele>
        <time>2018-08-12T08:01:13Z</time>
      </trkpt>
      <trkpt lat="45.40124" lon="4.68202">
        <ele>462</ele>
        <time>2018-08-12T08:01:18Z</time>
      </trkpt>
      <trkpt lat="45.40111" lon="4.68182">
        <ele>463</ele>
        <time>2018-08-12T08:01:34Z</time>
      </trkpt>
      <trkpt lat="45.401" lon="4.68165">
        <ele>468</ele>
        <time>2018-08-12T08:01:55Z</time>
      </trkpt>
      <trkpt lat="45.40091" lon="4.68149">
        <ele>468</ele>
        <time>2018-08-12T08:02:14Z</time>
      </trkpt>
      <trkpt lat="45.40091" lon="4.68147">
        <ele>468</ele>
        <time>2018-08-12T08:02:17Z</time>
      </trkpt>
      <trkpt lat="45.4009" lon="4.68133">
        <ele>468</ele>
        <time>2018-08-12T08:02:48Z</time>
      </trkpt>
      <trkpt lat="45.40081" lon="4.6811">
        <ele>476</ele>
        <time>2018-08-12T08:03:12Z</time>
      </trkpt>
      <trkpt lat="45.40074" lon="4.68087">
        <ele>476</ele>
        <time>2018-08-12T08:03:32Z</time>
      </trkpt>
      <trkpt lat="45.4007" lon="4.68077">
        <ele>479</ele>
        <time>2018-08-12T08:03:44Z</time>
      </trkpt>
      <trkpt lat="45.40063" lon="4.68057">
        <ele>481</ele>
        <time>2018-08-12T08:03:59Z</time>
      </trkpt>
      <trkpt lat="45.40053" lon="4.68042">
        <ele>482</ele>
        <time>2018-08-12T08:04:16Z</time>
      </trkpt>
      <trkpt lat="45.40045" lon="4.68029">
        <ele>483</ele>
        <time>2018-08-12T08:04:33Z</time>
      </trkpt>
      <trkpt lat="45.40036" lon="4.68009">
        <ele>484</ele>
        <time>2018-08-12T08:04:51Z</time>
      </trkpt>
      <trkpt lat="45.40024" lon="4.67985">
        <ele>490</ele>
        <time>2018-08-12T08:05:11Z</time>
      </trkpt>
      <trkpt lat="45.40012" lon="4.67963">
        <ele>491</ele>
        <time>2018-08-12T08:05:33Z</time>
      </trkpt>
      <trkpt lat="45.40001" lon="4.67941">
        <ele>494</ele>
        <time>2018-08-12T08:05:55Z</time>
      </trkpt>
      <trkpt lat="45.3999" lon="4.67923">
        <ele>497</ele>
        <time>2018-08-12T08:06:13Z</time>
      </trkpt>
      <trkpt lat="45.39991" lon="4.67916">
        <ele>501</ele>
        <time>2018-08-12T08:06:20Z</time>
      </trkpt>
      <trkpt lat="45.39978" lon="4.67895">
        <ele>503</ele>
        <time>2018-08-12T08:06:37Z</time>
      </trkpt>
      <trkpt lat="45.39971" lon="4.67877">
        <ele>504</ele>
        <time>2018-08-12T08:06:57Z</time>
      </trkpt>
      <trkpt lat="45.39968" lon="4.67868">
        <ele>505</ele>
        <time>2018-08-12T08:07:08Z</time>
      </trkpt>
      <trkpt lat="45.39962" lon="4.67845">
        <ele>506</ele>
        <time>2018-08-12T08:07:31Z</time>
      </trkpt>
      <trkpt lat="45.39957" lon="4.67832">
        <ele>514</ele>
        <time>2018-08-12T08:07:43Z</time>
      </trkpt>
      <trkpt lat="45.3995" lon="4.67823">
        <ele>514</ele>
        <time>2018-08-12T08:07:53Z</time>
      </trkpt>
      <trkpt lat="45.39945" lon="4.67808">
        <ele>515</ele>
        <time>2018-08-12T08:08:05Z</time>
      </trkpt>
      <trkpt lat="45.39943" lon="4.67802">
        <ele>515</ele>
        <time>2018-08-12T08:08:10Z</time>
      </trkpt>
      <trkpt lat="45.39939" lon="4.67794">
        <ele>515</ele>
        <time>2018-08-12T08:08:17Z</time>
      </trkpt>
      <trkpt lat="45.3993" lon="4.67763">
        <ele>518</ele>
        <time>2018-08-12T08:08:44Z</time>
      </trkpt>
      <trkpt lat="45.39929" lon="4.67755">
        <ele>518</ele>
        <time>2018-08-12T08:08:55Z</time>
      </trkpt>
      <trkpt lat="45.39929" lon="4.6775">
        <ele>523</ele>
        <time>2018-08-12T08:09:00Z</time>
      </trkpt>
      <trkpt lat="45.39927" lon="4.67722">
        <ele>526</ele>
        <time>2018-08-12T08:09:28Z</time>
      </trkpt>
      <trkpt lat="45.3992" lon="4.67704">
        <ele>527</ele>
        <time>2018-08-12T08:09:46Z</time>
      </trkpt>
      <trkpt lat="45.39918" lon="4.6769">
        <ele>529</ele>
        <time>2018-08-12T08:10:02Z</time>
      </trkpt>
      <trkpt lat="45.39917" lon="4.67666">
        <ele>532</ele>
        <time>2018-08-12T08:10:26Z</time>
      </trkpt>
      <trkpt lat="45.39908" lon="4.67644">
        <ele>533</ele>
        <time>2018-08-12T08:10:46Z</time>
      </trkpt>
      <trkpt lat="45.39899" lon="4.67631">
        <ele>533</ele>
        <time>2018-08-12T08:11:03Z</time>
      </trkpt>
      <trkpt lat="45.39882" lon="4.67615">
        <ele>534</ele>
        <time>2018-08-12T08:11:25Z</time>
      </trkpt>
      <trkpt lat="45.39867" lon="4.67585">
        <ele>534</ele>
        <time>2018-08-12T08:11:48Z</time>
      </trkpt>
      <trkpt lat="45.39852" lon="4.67556">
        <ele>542</ele>
        <time>2018-08-12T08:12:10Z</time>
      </trkpt>
      <trkpt lat="45.39838" lon="4.67535">
        <ele>543</ele>
        <time>2018-08-12T08:12:33Z</time>
      </trkpt>
      <trkpt lat="45.39822" lon="4.6751">
        <ele>539</ele>
        <time>2018-08-12T08:12:53Z</time>
      </trkpt>
      <trkpt lat="45.39811" lon="4.67494">
        <ele>543</ele>
        <time>2018-08-12T08:13:13Z</time>
      </trkpt>
      <trkpt lat="45.39798" lon="4.6748">
        <ele>542</ele>
        <time>2018-08-12T08:14:04Z</time>
      </trkpt>
      <trkpt lat="45.39783" lon="4.67451">
        <ele>542</ele>
        <time>2018-08-12T08:14:27Z</time>
      </trkpt>
      <trkpt lat="45.39767" lon="4.67433">
        <ele>541</ele>
        <time>2018-08-12T08:14:48Z</time>
      </trkpt>
      <trkpt lat="45.39748" lon="4.67408">
        <ele>536</ele>
        <time>2018-08-12T08:15:07Z</time>
      </trkpt>
      <trkpt lat="45.39732" lon="4.67383">
        <ele>534</ele>
        <time>2018-08-12T08:15:27Z</time>
      </trkpt>
      <trkpt lat="45.39718" lon="4.67359">
        <ele>534</ele>
        <time>2018-08-12T08:15:46Z</time>
      </trkpt>
      <trkpt lat="45.39699" lon="4.67336">
        <ele>532</ele>
        <time>2018-08-12T08:16:08Z</time>
      </trkpt>
      <trkpt lat="45.39683" lon="4.67319">
        <ele>534</ele>
        <time>2018-08-12T08:16:25Z</time>
      </trkpt>
      <trkpt lat="45.39667" lon="4.673">
        <ele>535</ele>
        <time>2018-08-12T08:16:36Z</time>
      </trkpt>
      <trkpt lat="45.39649" lon="4.67286">
        <ele>525</ele>
        <time>2018-08-12T08:16:58Z</time>
      </trkpt>
      <trkpt lat="45.39633" lon="4.67282">
        <ele>524</ele>
        <time>2018-08-12T08:17:16Z</time>
      </trkpt>
      <trkpt lat="45.39616" lon="4.67274">
        <ele>523</ele>
        <time>2018-08-12T08:17:29Z</time>
      </trkpt>
      <trkpt lat="45.396" lon="4.6726">
        <ele>521</ele>
        <time>2018-08-12T08:17:48Z</time>
      </trkpt>
      <trkpt lat="45.3958" lon="4.67238">
        <ele>517</ele>
        <time>2018-08-12T08:18:14Z</time>
      </trkpt>
      <trkpt lat="45.39571" lon="4.67226">
        <ele>516</ele>
        <time>2018-08-12T08:18:24Z</time>
      </trkpt>
      <trkpt lat="45.39559" lon="4.67216">
        <ele>516</ele>
        <time>2018-08-12T08:18:51Z</time>
      </trkpt>
      <trkpt lat="45.39561" lon="4.6721">
        <ele>516</ele>
        <time>2018-08-12T08:19:03Z</time>
      </trkpt>
      <trkpt lat="45.39559" lon="4.67215">
        <ele>516</ele>
        <time>2018-08-12T08:19:15Z</time>
      </trkpt>
      <trkpt lat="45.39557" lon="4.67213">
        <ele>515</ele>
        <time>2018-08-12T08:19:34Z</time>
      </trkpt>
      <trkpt lat="45.39561" lon="4.67217">
        <ele>516</ele>
        <time>2018-08-12T08:19:55Z</time>
      </trkpt>
      <trkpt lat="45.39558" lon="4.67219">
        <ele>515</ele>
        <time>2018-08-12T08:20:25Z</time>
      </trkpt>
      <trkpt lat="45.39562" lon="4.67219">
        <ele>516</ele>
        <time>2018-08-12T08:20:43Z</time>
      </trkpt>
      <trkpt lat="45.39565" lon="4.6722">
        <ele>516</ele>
        <time>2018-08-12T08:21:17Z</time>
      </trkpt>
      <trkpt lat="45.39564" lon="4.67215">
        <ele>516</ele>
        <time>2018-08-12T08:21:31Z</time>
      </trkpt>
      <trkpt lat="45.39548" lon="4.67204">
        <ele>515</ele>
        <time>2018-08-12T08:21:42Z</time>
      </trkpt>
      <trkpt lat="45.39528" lon="4.67185">
        <ele>514</ele>
        <time>2018-08-12T08:22:00Z</time>
      </trkpt>
      <trkpt lat="45.39516" lon="4.6717">
        <ele>513</ele>
        <time>2018-08-12T08:22:16Z</time>
      </trkpt>
      <trkpt lat="45.39503" lon="4.67154">
        <ele>514</ele>
        <time>2018-08-12T08:22:34Z</time>
      </trkpt>
      <trkpt lat="45.39494" lon="4.6715">
        <ele>511</ele>
        <time>2018-08-12T08:22:41Z</time>
      </trkpt>
      <trkpt lat="45.39474" lon="4.67148">
        <ele>511</ele>
        <time>2018-08-12T08:22:56Z</time>
      </trkpt>
      <trkpt lat="45.3946" lon="4.67147">
        <ele>511</ele>
        <time>2018-08-12T08:23:10Z</time>
      </trkpt>
      <trkpt lat="45.39443" lon="4.67168">
        <ele>507</ele>
        <time>2018-08-12T08:23:31Z</time>
      </trkpt>
      <trkpt lat="45.3944" lon="4.67172">
        <ele>507</ele>
        <time>2018-08-12T08:23:34Z</time>
      </trkpt>
      <trkpt lat="45.39425" lon="4.67192">
        <ele>506</ele>
        <time>2018-08-12T08:23:50Z</time>
      </trkpt>
      <trkpt lat="45.39422" lon="4.67196">
        <ele>506</ele>
        <time>2018-08-12T08:23:53Z</time>
      </trkpt>
      <trkpt lat="45.39405" lon="4.67211">
        <ele>503</ele>
        <time>2018-08-12T08:24:09Z</time>
      </trkpt>
      <trkpt lat="45.39385" lon="4.67227">
        <ele>502</ele>
        <time>2018-08-12T08:24:25Z</time>
      </trkpt>
      <trkpt lat="45.39366" lon="4.6724">
        <ele>502</ele>
        <time>2018-08-12T08:24:41Z</time>
      </trkpt>
      <trkpt lat="45.39344" lon="4.67259">
        <ele>499</ele>
        <time>2018-08-12T08:25:01Z</time>
      </trkpt>
      <trkpt lat="45.39332" lon="4.67278">
        <ele>498</ele>
        <time>2018-08-12T08:25:13Z</time>
      </trkpt>
      <trkpt lat="45.39318" lon="4.67305">
        <ele>497</ele>
        <time>2018-08-12T08:25:29Z</time>
      </trkpt>
      <trkpt lat="45.39311" lon="4.67319">
        <ele>497</ele>
        <time>2018-08-12T08:25:39Z</time>
      </trkpt>
      <trkpt lat="45.39294" lon="4.67315">
        <ele>497</ele>
        <time>2018-08-12T08:25:53Z</time>
      </trkpt>
      <trkpt lat="45.39271" lon="4.67307">
        <ele>497</ele>
        <time>2018-08-12T08:26:10Z</time>
      </trkpt>
      <trkpt lat="45.39257" lon="4.67299">
        <ele>497</ele>
        <time>2018-08-12T08:26:23Z</time>
      </trkpt>
      <trkpt lat="45.39252" lon="4.67297">
        <ele>497</ele>
        <time>2018-08-12T08:26:27Z</time>
      </trkpt>
      <trkpt lat="45.39239" lon="4.67289">
        <ele>496</ele>
        <time>2018-08-12T08:26:40Z</time>
      </trkpt>
      <trkpt lat="45.39237" lon="4.67287">
        <ele>496</ele>
        <time>2018-08-12T08:26:42Z</time>
      </trkpt>
      <trkpt lat="45.39213" lon="4.67277">
        <ele>496</ele>
        <time>2018-08-12T08:26:59Z</time>
      </trkpt>
      <trkpt lat="45.39196" lon="4.6727">
        <ele>497</ele>
        <time>2018-08-12T08:27:15Z</time>
      </trkpt>
      <trkpt lat="45.39174" lon="4.67263">
        <ele>497</ele>
        <time>2018-08-12T08:27:35Z</time>
      </trkpt>
      <trkpt lat="45.39153" lon="4.67253">
        <ele>496</ele>
        <time>2018-08-12T08:27:57Z</time>
      </trkpt>
      <trkpt lat="45.39144" lon="4.67248">
        <ele>497</ele>
        <time>2018-08-12T08:28:11Z</time>
      </trkpt>
      <trkpt lat="45.39137" lon="4.6724">
        <ele>497</ele>
        <time>2018-08-12T08:28:29Z</time>
      </trkpt>
      <trkpt lat="45.39136" lon="4.67237">
        <ele>497</ele>
        <time>2018-08-12T08:28:31Z</time>
      </trkpt>
      <trkpt lat="45.39134" lon="4.67213">
        <ele>498</ele>
        <time>2018-08-12T08:28:47Z</time>
      </trkpt>
      <trkpt lat="45.39134" lon="4.67205">
        <ele>498</ele>
        <time>2018-08-12T08:28:55Z</time>
      </trkpt>
      <trkpt lat="45.39135" lon="4.67207">
        <ele>498</ele>
        <time>2018-08-12T08:28:58Z</time>
      </trkpt>
      <trkpt lat="45.39133" lon="4.67183">
        <ele>499</ele>
        <time>2018-08-12T08:29:13Z</time>
      </trkpt>
      <trkpt lat="45.39131" lon="4.67152">
        <ele>503</ele>
        <time>2018-08-12T08:29:33Z</time>
      </trkpt>
      <trkpt lat="45.39131" lon="4.67147">
        <ele>504</ele>
        <time>2018-08-12T08:29:37Z</time>
      </trkpt>
      <trkpt lat="45.39131" lon="4.67131">
        <ele>504</ele>
        <time>2018-08-12T08:29:49Z</time>
      </trkpt>
      <trkpt lat="45.39132" lon="4.67119">
        <ele>505</ele>
        <time>2018-08-12T08:29:57Z</time>
      </trkpt>
      <trkpt lat="45.39129" lon="4.67097">
        <ele>506</ele>
        <time>2018-08-12T08:30:12Z</time>
      </trkpt>
      <trkpt lat="45.39131" lon="4.6708">
        <ele>511</ele>
        <time>2018-08-12T08:30:27Z</time>
      </trkpt>
      <trkpt lat="45.39131" lon="4.67054">
        <ele>512</ele>
        <time>2018-08-12T08:30:48Z</time>
      </trkpt>
      <trkpt lat="45.39131" lon="4.67029">
        <ele>513</ele>
        <time>2018-08-12T08:31:04Z</time>
      </trkpt>
      <trkpt lat="45.39135" lon="4.67013">
        <ele>514</ele>
        <time>2018-08-12T08:31:20Z</time>
      </trkpt>
      <trkpt lat="45.39136" lon="4.66994">
        <ele>519</ele>
        <time>2018-08-12T08:31:39Z</time>
      </trkpt>
      <trkpt lat="45.39133" lon="4.66979">
        <ele>519</ele>
        <time>2018-08-12T08:31:46Z</time>
      </trkpt>
      <trkpt lat="45.39132" lon="4.66952">
        <ele>521</ele>
        <time>2018-08-12T08:32:03Z</time>
      </trkpt>
      <trkpt lat="45.39132" lon="4.66948">
        <ele>521</ele>
        <time>2018-08-12T08:32:06Z</time>
      </trkpt>
      <trkpt lat="45.39135" lon="4.6693">
        <ele>522</ele>
        <time>2018-08-12T08:32:22Z</time>
      </trkpt>
      <trkpt lat="45.39128" lon="4.66906">
        <ele>527</ele>
        <time>2018-08-12T08:32:42Z</time>
      </trkpt>
      <trkpt lat="45.39126" lon="4.66901">
        <ele>527</ele>
        <time>2018-08-12T08:32:45Z</time>
      </trkpt>
      <trkpt lat="45.3912" lon="4.66882">
        <ele>528</ele>
        <time>2018-08-12T08:33:01Z</time>
      </trkpt>
      <trkpt lat="45.39118" lon="4.66876">
        <ele>528</ele>
        <time>2018-08-12T08:33:11Z</time>
      </trkpt>
      <trkpt lat="45.39109" lon="4.66858">
        <ele>529</ele>
        <time>2018-08-12T08:33:26Z</time>
      </trkpt>
      <trkpt lat="45.39098" lon="4.66837">
        <ele>530</ele>
        <time>2018-08-12T08:33:41Z</time>
      </trkpt>
      <trkpt lat="45.39088" lon="4.6682">
        <ele>534</ele>
        <time>2018-08-12T08:33:56Z</time>
      </trkpt>
      <trkpt lat="45.39074" lon="4.66793">
        <ele>533</ele>
        <time>2018-08-12T08:34:16Z</time>
      </trkpt>
      <trkpt lat="45.39063" lon="4.66767">
        <ele>535</ele>
        <time>2018-08-12T08:34:30Z</time>
      </trkpt>
      <trkpt lat="45.39054" lon="4.66749">
        <ele>540</ele>
        <time>2018-08-12T08:34:50Z</time>
      </trkpt>
      <trkpt lat="45.39042" lon="4.66719">
        <ele>541</ele>
        <time>2018-08-12T08:35:09Z</time>
      </trkpt>
      <trkpt lat="45.39033" lon="4.66694">
        <ele>541</ele>
        <time>2018-08-12T08:35:23Z</time>
      </trkpt>
      <trkpt lat="45.39023" lon="4.66664">
        <ele>547</ele>
        <time>2018-08-12T08:35:40Z</time>
      </trkpt>
      <trkpt lat="45.39009" lon="4.66637">
        <ele>548</ele>
        <time>2018-08-12T08:35:58Z</time>
      </trkpt>
      <trkpt lat="45.39005" lon="4.66615">
        <ele>550</ele>
        <time>2018-08-12T08:36:13Z</time>
      </trkpt>
      <trkpt lat="45.39004" lon="4.66614">
        <ele>550</ele>
        <time>2018-08-12T08:36:31Z</time>
      </trkpt>
      <trkpt lat="45.3899" lon="4.66582">
        <ele>550</ele>
        <time>2018-08-12T08:36:53Z</time>
      </trkpt>
      <trkpt lat="45.38981" lon="4.66563">
        <ele>548</ele>
        <time>2018-08-12T08:37:11Z</time>
      </trkpt>
      <trkpt lat="45.38967" lon="4.66523">
        <ele>549</ele>
        <time>2018-08-12T08:37:33Z</time>
      </trkpt>
      <trkpt lat="45.3896" lon="4.66504">
        <ele>549</ele>
        <time>2018-08-12T08:37:45Z</time>
      </trkpt>
      <trkpt lat="45.38959" lon="4.66503">
        <ele>549</ele>
        <time>2018-08-12T08:37:46Z</time>
      </trkpt>
      <trkpt lat="45.38959" lon="4.66498">
        <ele>554</ele>
        <time>2018-08-12T08:37:50Z</time>
      </trkpt>
      <trkpt lat="45.38956" lon="4.66482">
        <ele>554</ele>
        <time>2018-08-12T08:38:04Z</time>
      </trkpt>
      <trkpt lat="45.38949" lon="4.66452">
        <ele>555</ele>
        <time>2018-08-12T08:38:22Z</time>
      </trkpt>
      <trkpt lat="45.38943" lon="4.66426">
        <ele>555</ele>
        <time>2018-08-12T08:38:38Z</time>
      </trkpt>
      <trkpt lat="45.38938" lon="4.66403">
        <ele>559</ele>
        <time>2018-08-12T08:38:55Z</time>
      </trkpt>
      <trkpt lat="45.38936" lon="4.66397">
        <ele>560</ele>
        <time>2018-08-12T08:38:59Z</time>
      </trkpt>
      <trkpt lat="45.3893" lon="4.66372">
        <ele>561</ele>
        <time>2018-08-12T08:39:15Z</time>
      </trkpt>
      <trkpt lat="45.38925" lon="4.66338">
        <ele>562</ele>
        <time>2018-08-12T08:39:36Z</time>
      </trkpt>
      <trkpt lat="45.38917" lon="4.66313">
        <ele>560</ele>
        <time>2018-08-12T08:39:53Z</time>
      </trkpt>
      <trkpt lat="45.38906" lon="4.66274">
        <ele>562</ele>
        <time>2018-08-12T08:40:14Z</time>
      </trkpt>
      <trkpt lat="45.38903" lon="4.66257">
        <ele>564</ele>
        <time>2018-08-12T08:40:26Z</time>
      </trkpt>
      <trkpt lat="45.38899" lon="4.66242">
        <ele>567</ele>
        <time>2018-08-12T08:40:39Z</time>
      </trkpt>
      <trkpt lat="45.38895" lon="4.66223">
        <ele>568</ele>
        <time>2018-08-12T08:40:53Z</time>
      </trkpt>
      <trkpt lat="45.38894" lon="4.66218">
        <ele>568</ele>
        <time>2018-08-12T08:40:55Z</time>
      </trkpt>
      <trkpt lat="45.38889" lon="4.66192">
        <ele>569</ele>
        <time>2018-08-12T08:41:11Z</time>
      </trkpt>
      <trkpt lat="45.3888" lon="4.66169">
        <ele>569</ele>
        <time>2018-08-12T08:41:29Z</time>
      </trkpt>
      <trkpt lat="45.38867" lon="4.66145">
        <ele>574</ele>
        <time>2018-08-12T08:41:48Z</time>
      </trkpt>
      <trkpt lat="45.38855" lon="4.66123">
        <ele>574</ele>
        <time>2018-08-12T08:42:02Z</time>
      </trkpt>
      <trkpt lat="45.38844" lon="4.66093">
        <ele>574</ele>
        <time>2018-08-12T08:42:16Z</time>
      </trkpt>
      <trkpt lat="45.38839" lon="4.66091">
        <ele>574</ele>
        <time>2018-08-12T08:42:21Z</time>
      </trkpt>
      <trkpt lat="45.38832" lon="4.66069">
        <ele>573</ele>
        <time>2018-08-12T08:42:35Z</time>
      </trkpt>
      <trkpt lat="45.38827" lon="4.6606">
        <ele>573</ele>
        <time>2018-08-12T08:42:42Z</time>
      </trkpt>
      <trkpt lat="45.3882" lon="4.66039">
        <ele>573</ele>
        <time>2018-08-12T08:42:59Z</time>
      </trkpt>
      <trkpt lat="45.38817" lon="4.66015">
        <ele>575</ele>
        <time>2018-08-12T08:43:16Z</time>
      </trkpt>
      <trkpt lat="45.38805" lon="4.65991">
        <ele>579</ele>
        <time>2018-08-12T08:43:27Z</time>
      </trkpt>
      <trkpt lat="45.38797" lon="4.65972">
        <ele>579</ele>
        <time>2018-08-12T08:43:44Z</time>
      </trkpt>
      <trkpt lat="45.38796" lon="4.65963">
        <ele>579</ele>
        <time>2018-08-12T08:43:52Z</time>
      </trkpt>
      <trkpt lat="45.38791" lon="4.65937">
        <ele>580</ele>
        <time>2018-08-12T08:44:11Z</time>
      </trkpt>
      <trkpt lat="45.3879" lon="4.6593">
        <ele>580</ele>
        <time>2018-08-12T08:44:16Z</time>
      </trkpt>
      <trkpt lat="45.3879" lon="4.65925">
        <ele>580</ele>
        <time>2018-08-12T08:44:19Z</time>
      </trkpt>
      <trkpt lat="45.38784" lon="4.65904">
        <ele>584</ele>
        <time>2018-08-12T08:44:34Z</time>
      </trkpt>
      <trkpt lat="45.38783" lon="4.659">
        <ele>584</ele>
        <time>2018-08-12T08:44:36Z</time>
      </trkpt>
      <trkpt lat="45.38768" lon="4.65861">
        <ele>586</ele>
        <time>2018-08-12T08:45:02Z</time>
      </trkpt>
      <trkpt lat="45.38754" lon="4.65823">
        <ele>589</ele>
        <time>2018-08-12T08:45:24Z</time>
      </trkpt>
      <trkpt lat="45.38748" lon="4.658">
        <ele>588</ele>
        <time>2018-08-12T08:45:40Z</time>
      </trkpt>
      <trkpt lat="45.38739" lon="4.65771">
        <ele>590</ele>
        <time>2018-08-12T08:46:01Z</time>
      </trkpt>
      <trkpt lat="45.38736" lon="4.65765">
        <ele>590</ele>
        <time>2018-08-12T08:46:07Z</time>
      </trkpt>
      <trkpt lat="45.38723" lon="4.65756">
        <ele>590</ele>
        <time>2018-08-12T08:46:20Z</time>
      </trkpt>
      <trkpt lat="45.38715" lon="4.65752">
        <ele>590</ele>
        <time>2018-08-12T08:46:28Z</time>
      </trkpt>
      <trkpt lat="45.38709" lon="4.65748">
        <ele>598</ele>
        <time>2018-08-12T08:46:39Z</time>
      </trkpt>
      <trkpt lat="45.38687" lon="4.65744">
        <ele>596</ele>
        <time>2018-08-12T08:46:59Z</time>
      </trkpt>
      <trkpt lat="45.38683" lon="4.65744">
        <ele>596</ele>
        <time>2018-08-12T08:47:04Z</time>
      </trkpt>
      <trkpt lat="45.38678" lon="4.65744">
        <ele>595</ele>
        <time>2018-08-12T08:47:06Z</time>
      </trkpt>
      <trkpt lat="45.38658" lon="4.65746">
        <ele>594</ele>
        <time>2018-08-12T08:47:22Z</time>
      </trkpt>
      <trkpt lat="45.3864" lon="4.65745">
        <ele>596</ele>
        <time>2018-08-12T08:47:39Z</time>
      </trkpt>
      <trkpt lat="45.38613" lon="4.65744">
        <ele>595</ele>
        <time>2018-08-12T08:48:02Z</time>
      </trkpt>
      <trkpt lat="45.38588" lon="4.65737">
        <ele>593</ele>
        <time>2018-08-12T08:48:24Z</time>
      </trkpt>
      <trkpt lat="45.38572" lon="4.65724">
        <ele>595</ele>
        <time>2018-08-12T08:48:39Z</time>
      </trkpt>
      <trkpt lat="45.38562" lon="4.657">
        <ele>599</ele>
        <time>2018-08-12T08:49:04Z</time>
      </trkpt>
      <trkpt lat="45.38545" lon="4.65681">
        <ele>600</ele>
        <time>2018-08-12T08:49:26Z</time>
      </trkpt>
      <trkpt lat="45.3853" lon="4.65666">
        <ele>609</ele>
        <time>2018-08-12T08:49:49Z</time>
      </trkpt>
      <trkpt lat="45.38515" lon="4.65647">
        <ele>610</ele>
        <time>2018-08-12T08:50:12Z</time>
      </trkpt>
      <trkpt lat="45.38498" lon="4.65618">
        <ele>610</ele>
        <time>2018-08-12T08:50:37Z</time>
      </trkpt>
      <trkpt lat="45.38494" lon="4.65615">
        <ele>610</ele>
        <time>2018-08-12T08:50:53Z</time>
      </trkpt>
      <trkpt lat="45.38497" lon="4.65601">
        <ele>612</ele>
        <time>2018-08-12T08:51:13Z</time>
      </trkpt>
      <trkpt lat="45.38505" lon="4.65603">
        <ele>615</ele>
        <time>2018-08-12T08:51:29Z</time>
      </trkpt>
      <trkpt lat="45.38507" lon="4.65604">
        <ele>615</ele>
        <time>2018-08-12T08:51:33Z</time>
      </trkpt>
      <trkpt lat="45.38507" lon="4.65593">
        <ele>616</ele>
        <time>2018-08-12T08:51:57Z</time>
      </trkpt>
      <trkpt lat="45.38508" lon="4.65589">
        <ele>617</ele>
        <time>2018-08-12T08:52:20Z</time>
      </trkpt>
      <trkpt lat="45.38504" lon="4.65575">
        <ele>622</ele>
        <time>2018-08-12T08:52:58Z</time>
      </trkpt>
      <trkpt lat="45.38496" lon="4.65553">
        <ele>620</ele>
        <time>2018-08-12T08:53:19Z</time>
      </trkpt>
      <trkpt lat="45.38493" lon="4.65542">
        <ele>621</ele>
        <time>2018-08-12T08:53:32Z</time>
      </trkpt>
      <trkpt lat="45.38491" lon="4.65525">
        <ele>624</ele>
        <time>2018-08-12T08:53:50Z</time>
      </trkpt>
      <trkpt lat="45.38486" lon="4.65503">
        <ele>627</ele>
        <time>2018-08-12T08:54:09Z</time>
      </trkpt>
      <trkpt lat="45.3848" lon="4.65482">
        <ele>632</ele>
        <time>2018-08-12T08:54:34Z</time>
      </trkpt>
      <trkpt lat="45.3848" lon="4.65479">
        <ele>632</ele>
        <time>2018-08-12T08:54:38Z</time>
      </trkpt>
      <trkpt lat="45.38481" lon="4.65453">
        <ele>634</ele>
        <time>2018-08-12T08:55:01Z</time>
      </trkpt>
      <trkpt lat="45.38476" lon="4.65436">
        <ele>636</ele>
        <time>2018-08-12T08:55:24Z</time>
      </trkpt>
      <trkpt lat="45.38474" lon="4.65412">
        <ele>645</ele>
        <time>2018-08-12T08:55:44Z</time>
      </trkpt>
      <trkpt lat="45.38469" lon="4.65398">
        <ele>645</ele>
        <time>2018-08-12T08:56:03Z</time>
      </trkpt>
      <trkpt lat="45.38466" lon="4.65371">
        <ele>646</ele>
        <time>2018-08-12T08:56:33Z</time>
      </trkpt>
      <trkpt lat="45.38461" lon="4.65355">
        <ele>647</ele>
        <time>2018-08-12T08:56:50Z</time>
      </trkpt>
      <trkpt lat="45.38449" lon="4.65332">
        <ele>657</ele>
        <time>2018-08-12T08:57:15Z</time>
      </trkpt>
      <trkpt lat="45.38444" lon="4.65311">
        <ele>658</ele>
        <time>2018-08-12T08:57:39Z</time>
      </trkpt>
      <trkpt lat="45.38439" lon="4.6529">
        <ele>661</ele>
        <time>2018-08-12T08:57:58Z</time>
      </trkpt>
      <trkpt lat="45.38437" lon="4.65274">
        <ele>663</ele>
        <time>2018-08-12T08:58:18Z</time>
      </trkpt>
      <trkpt lat="45.38431" lon="4.65258">
        <ele>664</ele>
        <time>2018-08-12T08:58:38Z</time>
      </trkpt>
      <trkpt lat="45.38426" lon="4.65241">
        <ele>673</ele>
        <time>2018-08-12T08:59:00Z</time>
      </trkpt>
      <trkpt lat="45.38421" lon="4.65229">
        <ele>676</ele>
        <time>2018-08-12T08:59:22Z</time>
      </trkpt>
      <trkpt lat="45.38428" lon="4.65216">
        <ele>680</ele>
        <time>2018-08-12T09:00:00Z</time>
      </trkpt>
      <trkpt lat="45.38431" lon="4.65214">
        <ele>681</ele>
        <time>2018-08-12T09:00:07Z</time>
      </trkpt>
      <trkpt lat="45.38438" lon="4.65207">
        <ele>683</ele>
        <time>2018-08-12T09:00:25Z</time>
      </trkpt>
      <trkpt lat="45.38452" lon="4.65204">
        <ele>684</ele>
        <time>2018-08-12T09:00:45Z</time>
      </trkpt>
      <trkpt lat="45.38465" lon="4.65208">
        <ele>685</ele>
        <time>2018-08-12T09:01:07Z</time>
      </trkpt>
      <trkpt lat="45.38478" lon="4.65209">
        <ele>686</ele>
        <time>2018-08-12T09:01:28Z</time>
      </trkpt>
      <trkpt lat="45.38496" lon="4.6522">
        <ele>685</ele>
        <time>2018-08-12T09:01:50Z</time>
      </trkpt>
      <trkpt lat="45.38515" lon="4.65218">
        <ele>694</ele>
        <time>2018-08-12T09:02:16Z</time>
      </trkpt>
      <trkpt lat="45.38521" lon="4.65213">
        <ele>695</ele>
        <time>2018-08-12T09:02:30Z</time>
      </trkpt>
      <trkpt lat="45.38528" lon="4.65209">
        <ele>696</ele>
        <time>2018-08-12T09:02:49Z</time>
      </trkpt>
      <trkpt lat="45.38535" lon="4.65207">
        <ele>697</ele>
        <time>2018-08-12T09:02:59Z</time>
      </trkpt>
      <trkpt lat="45.38543" lon="4.65191">
        <ele>700</ele>
        <time>2018-08-12T09:03:17Z</time>
      </trkpt>
      <trkpt lat="45.38548" lon="4.65188">
        <ele>700</ele>
        <time>2018-08-12T09:03:25Z</time>
      </trkpt>
      <trkpt lat="45.38545" lon="4.65176">
        <ele>701</ele>
        <time>2018-08-12T09:03:40Z</time>
      </trkpt>
      <trkpt lat="45.3854" lon="4.6517">
        <ele>701</ele>
        <time>2018-08-12T09:03:50Z</time>
      </trkpt>
      <trkpt lat="45.38538" lon="4.65165">
        <ele>713</ele>
        <time>2018-08-12T09:03:54Z</time>
      </trkpt>
      <trkpt lat="45.38536" lon="4.65162">
        <ele>713</ele>
        <time>2018-08-12T09:03:57Z</time>
      </trkpt>
      <trkpt lat="45.3852" lon="4.65136">
        <ele>714</ele>
        <time>2018-08-12T09:04:25Z</time>
      </trkpt>
      <trkpt lat="45.38507" lon="4.65121">
        <ele>716</ele>
        <time>2018-08-12T09:04:46Z</time>
      </trkpt>
      <trkpt lat="45.38492" lon="4.65101">
        <ele>712</ele>
        <time>2018-08-12T09:05:08Z</time>
      </trkpt>
      <trkpt lat="45.38479" lon="4.65081">
        <ele>721</ele>
        <time>2018-08-12T09:05:31Z</time>
      </trkpt>
      <trkpt lat="45.38471" lon="4.65065">
        <ele>721</ele>
        <time>2018-08-12T09:05:49Z</time>
      </trkpt>
      <trkpt lat="45.38468" lon="4.65038">
        <ele>723</ele>
        <time>2018-08-12T09:06:11Z</time>
      </trkpt>
      <trkpt lat="45.38452" lon="4.6502">
        <ele>723</ele>
        <time>2018-08-12T09:06:34Z</time>
      </trkpt>
      <trkpt lat="45.38445" lon="4.65002">
        <ele>722</ele>
        <time>2018-08-12T09:06:51Z</time>
      </trkpt>
      <trkpt lat="45.3844" lon="4.64993">
        <ele>729</ele>
        <time>2018-08-12T09:07:02Z</time>
      </trkpt>
      <trkpt lat="45.38429" lon="4.64975">
        <ele>730</ele>
        <time>2018-08-12T09:07:26Z</time>
      </trkpt>
      <trkpt lat="45.38427" lon="4.64971">
        <ele>730</ele>
        <time>2018-08-12T09:07:31Z</time>
      </trkpt>
      <trkpt lat="45.38417" lon="4.64941">
        <ele>732</ele>
        <time>2018-08-12T09:07:53Z</time>
      </trkpt>
      <trkpt lat="45.38404" lon="4.64918">
        <ele>724</ele>
        <time>2018-08-12T09:08:12Z</time>
      </trkpt>
      <trkpt lat="45.3839" lon="4.64898">
        <ele>728</ele>
        <time>2018-08-12T09:08:35Z</time>
      </trkpt>
      <trkpt lat="45.3838" lon="4.64867">
        <ele>729</ele>
        <time>2018-08-12T09:08:59Z</time>
      </trkpt>
      <trkpt lat="45.38378" lon="4.64858">
        <ele>729</ele>
        <time>2018-08-12T09:09:06Z</time>
      </trkpt>
      <trkpt lat="45.38376" lon="4.64845">
        <ele>730</ele>
        <time>2018-08-12T09:09:18Z</time>
      </trkpt>
      <trkpt lat="45.38375" lon="4.64839">
        <ele>730</ele>
        <time>2018-08-12T09:09:26Z</time>
      </trkpt>
      <trkpt lat="45.38376" lon="4.64829">
        <ele>739</ele>
        <time>2018-08-12T09:09:41Z</time>
      </trkpt>
      <trkpt lat="45.38364" lon="4.64824">
        <ele>736</ele>
        <time>2018-08-12T09:10:28Z</time>
      </trkpt>
      <trkpt lat="45.38367" lon="4.64825">
        <ele>737</ele>
        <time>2018-08-12T09:10:49Z</time>
      </trkpt>
      <trkpt lat="45.38362" lon="4.64806">
        <ele>738</ele>
        <time>2018-08-12T09:11:09Z</time>
      </trkpt>
      <trkpt lat="45.38361" lon="4.64786">
        <ele>739</ele>
        <time>2018-08-12T09:11:24Z</time>
      </trkpt>
      <trkpt lat="45.3836" lon="4.64776">
        <ele>739</ele>
        <time>2018-08-12T09:11:35Z</time>
      </trkpt>
      <trkpt lat="45.38362" lon="4.64751">
        <ele>740</ele>
        <time>2018-08-12T09:11:58Z</time>
      </trkpt>
      <trkpt lat="45.38362" lon="4.6475">
        <ele>740</ele>
        <time>2018-08-12T09:11:59Z</time>
      </trkpt>
      <trkpt lat="45.38364" lon="4.64741">
        <ele>748</ele>
        <time>2018-08-12T09:12:07Z</time>
      </trkpt>
      <trkpt lat="45.38363" lon="4.64707">
        <ele>751</ele>
        <time>2018-08-12T09:12:33Z</time>
      </trkpt>
      <trkpt lat="45.38363" lon="4.64676">
        <ele>752</ele>
        <time>2018-08-12T09:12:58Z</time>
      </trkpt>
      <trkpt lat="45.38365" lon="4.64653">
        <ele>762</ele>
        <time>2018-08-12T09:13:18Z</time>
      </trkpt>
      <trkpt lat="45.38367" lon="4.64635">
        <ele>765</ele>
        <time>2018-08-12T09:13:38Z</time>
      </trkpt>
      <trkpt lat="45.38365" lon="4.64617">
        <ele>767</ele>
        <time>2018-08-12T09:13:56Z</time>
      </trkpt>
      <trkpt lat="45.3836" lon="4.64595">
        <ele>767</ele>
        <time>2018-08-12T09:14:17Z</time>
      </trkpt>
      <trkpt lat="45.38353" lon="4.64576">
        <ele>774</ele>
        <time>2018-08-12T09:14:40Z</time>
      </trkpt>
      <trkpt lat="45.38349" lon="4.64556">
        <ele>777</ele>
        <time>2018-08-12T09:14:59Z</time>
      </trkpt>
      <trkpt lat="45.38346" lon="4.64552">
        <ele>778</ele>
        <time>2018-08-12T09:15:04Z</time>
      </trkpt>
      <trkpt lat="45.3834" lon="4.64532">
        <ele>780</ele>
        <time>2018-08-12T09:15:20Z</time>
      </trkpt>
      <trkpt lat="45.3833" lon="4.64509">
        <ele>774</ele>
        <time>2018-08-12T09:15:42Z</time>
      </trkpt>
      <trkpt lat="45.38328" lon="4.64507">
        <ele>774</ele>
        <time>2018-08-12T09:15:46Z</time>
      </trkpt>
      <trkpt lat="45.3832" lon="4.64491">
        <ele>779</ele>
        <time>2018-08-12T09:16:11Z</time>
      </trkpt>
      <trkpt lat="45.38318" lon="4.64481">
        <ele>779</ele>
        <time>2018-08-12T09:16:33Z</time>
      </trkpt>
      <trkpt lat="45.38318" lon="4.64424">
        <ele>787</ele>
        <time>2018-08-12T09:16:56Z</time>
      </trkpt>
      <trkpt lat="45.38311" lon="4.64398">
        <ele>796</ele>
        <time>2018-08-12T09:17:14Z</time>
      </trkpt>
      <trkpt lat="45.38304" lon="4.64381">
        <ele>798</ele>
        <time>2018-08-12T09:17:33Z</time>
      </trkpt>
      <trkpt lat="45.38291" lon="4.64375">
        <ele>797</ele>
        <time>2018-08-12T09:17:55Z</time>
      </trkpt>
      <trkpt lat="45.3829" lon="4.64379">
        <ele>797</ele>
      </trkpt>
      <trkpt lat="45.38285" lon="4.64378">
        <ele>796</ele>
      </trkpt>
      <trkpt lat="45.38277" lon="4.64376">
        <ele>796</ele>
      </trkpt>
      <trkpt lat="45.38265" lon="4.64374">
        <ele>795</ele>
      </trkpt>
      <trkpt lat="45.38242" lon="4.64368">
        <ele>787</ele>
      </trkpt>
      <trkpt lat="45.38226" lon="4.64362">
        <ele>787</ele>
      </trkpt>
      <trkpt lat="45.38198" lon="4.64343">
        <ele>786</ele>
      </trkpt>
      <trkpt lat="45.38161" lon="4.64299">
        <ele>786</ele>
      </trkpt>
      <trkpt lat="45.38141" lon="4.64267">
        <ele>788</ele>
      </trkpt>
      <trkpt lat="45.38119" lon="4.6423">
        <ele>796</ele>
      </trkpt>
      <trkpt lat="45.38086" lon="4.64183">
        <ele>796</ele>
      </trkpt>
      <trkpt lat="45.38053" lon="4.64155">
        <ele>793</ele>
      </trkpt>
      <trkpt lat="45.38034" lon="4.64121">
        <ele>794</ele>
      </trkpt>
      <trkpt lat="45.38019" lon="4.64101">
        <ele>795</ele>
      </trkpt>
      <trkpt lat="45.37998" lon="4.64081">
        <ele>797</ele>
        <time>2018-08-12T09:24:30Z</time>
      </trkpt>
      <trkpt lat="45.37979" lon="4.64075">
        <ele>802</ele>
        <time>2018-08-12T09:24:45Z</time>
      </trkpt>
      <trkpt lat="45.37964" lon="4.64073">
        <ele>803</ele>
        <time>2018-08-12T09:24:59Z</time>
      </trkpt>
      <trkpt lat="45.37956" lon="4.64074">
        <ele>803</ele>
        <time>2018-08-12T09:25:05Z</time>
      </trkpt>
      <trkpt lat="45.37939" lon="4.64072">
        <ele>802</ele>
        <time>2018-08-12T09:25:16Z</time>
      </trkpt>
      <trkpt lat="45.37933" lon="4.64074">
        <ele>800</ele>
        <time>2018-08-12T09:25:20Z</time>
      </trkpt>
      <trkpt lat="45.37931" lon="4.64074">
        <ele>800</ele>
        <time>2018-08-12T09:25:22Z</time>
      </trkpt>
      <trkpt lat="45.37926" lon="4.64072">
        <ele>799</ele>
        <time>2018-08-12T09:25:28Z</time>
      </trkpt>
      <trkpt lat="45.37924" lon="4.64074">
        <ele>798</ele>
        <time>2018-08-12T09:25:30Z</time>
      </trkpt>
      <trkpt lat="45.37917" lon="4.64073">
        <ele>797</ele>
        <time>2018-08-12T09:25:36Z</time>
      </trkpt>
      <trkpt lat="45.37899" lon="4.64071">
        <ele>800</ele>
        <time>2018-08-12T09:25:52Z</time>
      </trkpt>
      <trkpt lat="45.37873" lon="4.64069">
        <ele>803</ele>
        <time>2018-08-12T09:26:10Z</time>
      </trkpt>
      <trkpt lat="45.37861" lon="4.64071">
        <ele>802</ele>
        <time>2018-08-12T09:26:18Z</time>
      </trkpt>
      <trkpt lat="45.37857" lon="4.6407">
        <ele>802</ele>
        <time>2018-08-12T09:26:22Z</time>
      </trkpt>
      <trkpt lat="45.3785" lon="4.64069">
        <ele>802</ele>
        <time>2018-08-12T09:26:30Z</time>
      </trkpt>
      <trkpt lat="45.37833" lon="4.64069">
        <ele>802</ele>
        <time>2018-08-12T09:26:43Z</time>
      </trkpt>
      <trkpt lat="45.37827" lon="4.64069">
        <ele>802</ele>
        <time>2018-08-12T09:26:47Z</time>
      </trkpt>
      <trkpt lat="45.37819" lon="4.64069">
        <ele>803</ele>
        <time>2018-08-12T09:26:52Z</time>
      </trkpt>
      <trkpt lat="45.37801" lon="4.64068">
        <ele>805</ele>
        <time>2018-08-12T09:27:06Z</time>
      </trkpt>
      <trkpt lat="45.37787" lon="4.64064">
        <ele>807</ele>
        <time>2018-08-12T09:27:21Z</time>
      </trkpt>
      <trkpt lat="45.37772" lon="4.64066">
        <ele>807</ele>
        <time>2018-08-12T09:27:39Z</time>
      </trkpt>
      <trkpt lat="45.37767" lon="4.64066">
        <ele>807</ele>
        <time>2018-08-12T09:27:44Z</time>
      </trkpt>
      <trkpt lat="45.37757" lon="4.64067">
        <ele>807</ele>
        <time>2018-08-12T09:28:01Z</time>
      </trkpt>
      <trkpt lat="45.37749" lon="4.64065">
        <ele>806</ele>
        <time>2018-08-12T09:28:12Z</time>
      </trkpt>
      <trkpt lat="45.37735" lon="4.64065">
        <ele>806</ele>
        <time>2018-08-12T09:28:26Z</time>
      </trkpt>
      <trkpt lat="45.37732" lon="4.64063">
        <ele>806</ele>
        <time>2018-08-12T09:28:38Z</time>
      </trkpt>
      <trkpt lat="45.37728" lon="4.6406">
        <ele>806</ele>
        <time>2018-08-12T09:28:43Z</time>
      </trkpt>
      <trkpt lat="45.37719" lon="4.64049">
        <ele>806</ele>
        <time>2018-08-12T09:28:57Z</time>
      </trkpt>
      <trkpt lat="45.37718" lon="4.64045">
        <ele>806</ele>
        <time>2018-08-12T09:29:17Z</time>
      </trkpt>
      <trkpt lat="45.37716" lon="4.64043">
        <ele>806</ele>
        <time>2018-08-12T09:29:19Z</time>
      </trkpt>
      <trkpt lat="45.37708" lon="4.64025">
        <ele>806</ele>
        <time>2018-08-12T09:29:35Z</time>
      </trkpt>
      <trkpt lat="45.37705" lon="4.64014">
        <ele>806</ele>
        <time>2018-08-12T09:29:53Z</time>
      </trkpt>
      <trkpt lat="45.37705" lon="4.64015">
        <ele>806</ele>
        <time>2018-08-12T09:31:16Z</time>
      </trkpt>
      <trkpt lat="45.37706" lon="4.64016">
        <ele>806</ele>
        <time>2018-08-12T09:32:12Z</time>
      </trkpt>
      <trkpt lat="45.37707" lon="4.64012">
        <ele>806</ele>
        <time>2018-08-12T09:32:39Z</time>
      </trkpt>
      <trkpt lat="45.37707" lon="4.64015">
        <ele>806</ele>
        <time>2018-08-12T09:33:31Z</time>
      </trkpt>
      <trkpt lat="45.37706" lon="4.64017">
        <ele>806</ele>
        <time>2018-08-12T09:33:55Z</time>
      </trkpt>
      <trkpt lat="45.37706" lon="4.64015">
        <ele>806</ele>
        <time>2018-08-12T09:34:03Z</time>
      </trkpt>
      <trkpt lat="45.37705" lon="4.63999">
        <ele>809</ele>
        <time>2018-08-12T09:34:13Z</time>
      </trkpt>
      <trkpt lat="45.37701" lon="4.63973">
        <ele>809</ele>
        <time>2018-08-12T09:34:27Z</time>
      </trkpt>
      <trkpt lat="45.37697" lon="4.63944">
        <ele>809</ele>
        <time>2018-08-12T09:34:45Z</time>
      </trkpt>
      <trkpt lat="45.37688" lon="4.63917">
        <ele>807</ele>
        <time>2018-08-12T09:35:00Z</time>
      </trkpt>
      <trkpt lat="45.37681" lon="4.63889">
        <ele>812</ele>
        <time>2018-08-12T09:35:17Z</time>
      </trkpt>
      <trkpt lat="45.37673" lon="4.63862">
        <ele>813</ele>
        <time>2018-08-12T09:35:33Z</time>
      </trkpt>
      <trkpt lat="45.37659" lon="4.63835">
        <ele>804</ele>
        <time>2018-08-12T09:35:51Z</time>
      </trkpt>
      <trkpt lat="45.37644" lon="4.63806">
        <ele>801</ele>
        <time>2018-08-12T09:36:10Z</time>
      </trkpt>
      <trkpt lat="45.37636" lon="4.63773">
        <ele>801</ele>
        <time>2018-08-12T09:36:28Z</time>
      </trkpt>
      <trkpt lat="45.37635" lon="4.63763">
        <ele>802</ele>
        <time>2018-08-12T09:36:34Z</time>
      </trkpt>
      <trkpt lat="45.37635" lon="4.63757">
        <ele>802</ele>
        <time>2018-08-12T09:36:37Z</time>
      </trkpt>
      <trkpt lat="45.37631" lon="4.63718">
        <ele>805</ele>
        <time>2018-08-12T09:36:55Z</time>
      </trkpt>
      <trkpt lat="45.37632" lon="4.63709">
        <ele>805</ele>
        <time>2018-08-12T09:37:03Z</time>
      </trkpt>
      <trkpt lat="45.37635" lon="4.63686">
        <ele>807</ele>
        <time>2018-08-12T09:37:21Z</time>
      </trkpt>
      <trkpt lat="45.37634" lon="4.63654">
        <ele>811</ele>
        <time>2018-08-12T09:37:40Z</time>
      </trkpt>
      <trkpt lat="45.37631" lon="4.63628">
        <ele>811</ele>
        <time>2018-08-12T09:37:56Z</time>
      </trkpt>
      <trkpt lat="45.37623" lon="4.63586">
        <ele>811</ele>
        <time>2018-08-12T09:38:19Z</time>
      </trkpt>
      <trkpt lat="45.37612" lon="4.6354">
        <ele>813</ele>
        <time>2018-08-12T09:38:43Z</time>
      </trkpt>
      <trkpt lat="45.37601" lon="4.63502">
        <ele>809</ele>
        <time>2018-08-12T09:39:06Z</time>
      </trkpt>
      <trkpt lat="45.376" lon="4.63501">
        <ele>808</ele>
        <time>2018-08-12T09:39:07Z</time>
      </trkpt>
      <trkpt lat="45.37592" lon="4.63473">
        <ele>812</ele>
        <time>2018-08-12T09:39:22Z</time>
      </trkpt>
      <trkpt lat="45.37582" lon="4.6345">
        <ele>794</ele>
        <time>2018-08-12T09:39:38Z</time>
      </trkpt>
      <trkpt lat="45.37572" lon="4.6343">
        <ele>796</ele>
        <time>2018-08-12T09:39:51Z</time>
      </trkpt>
      <trkpt lat="45.37562" lon="4.63416">
        <ele>796</ele>
        <time>2018-08-12T09:40:02Z</time>
      </trkpt>
      <trkpt lat="45.37559" lon="4.63388">
        <ele>794</ele>
        <time>2018-08-12T09:40:17Z</time>
      </trkpt>
      <trkpt lat="45.37554" lon="4.63359">
        <ele>794</ele>
        <time>2018-08-12T09:40:32Z</time>
      </trkpt>
      <trkpt lat="45.37546" lon="4.63335">
        <ele>793</ele>
        <time>2018-08-12T09:40:45Z</time>
      </trkpt>
      <trkpt lat="45.37544" lon="4.63324">
        <ele>794</ele>
        <time>2018-08-12T09:40:53Z</time>
      </trkpt>
      <trkpt lat="45.37544" lon="4.63313">
        <ele>794</ele>
        <time>2018-08-12T09:40:59Z</time>
      </trkpt>
      <trkpt lat="45.37542" lon="4.63266">
        <ele>793</ele>
        <time>2018-08-12T09:41:19Z</time>
      </trkpt>
      <trkpt lat="45.37538" lon="4.63241">
        <ele>792</ele>
        <time>2018-08-12T09:41:31Z</time>
      </trkpt>
      <trkpt lat="45.37539" lon="4.63225">
        <ele>793</ele>
        <time>2018-08-12T09:41:43Z</time>
      </trkpt>
      <trkpt lat="45.37535" lon="4.63192">
        <ele>792</ele>
        <time>2018-08-12T09:41:59Z</time>
      </trkpt>
      <trkpt lat="45.37518" lon="4.63165">
        <ele>788</ele>
        <time>2018-08-12T09:42:17Z</time>
      </trkpt>
      <trkpt lat="45.37502" lon="4.63155">
        <ele>786</ele>
        <time>2018-08-12T09:42:32Z</time>
      </trkpt>
      <trkpt lat="45.37501" lon="4.63155">
        <ele>786</ele>
        <time>2018-08-12T09:42:33Z</time>
      </trkpt>
      <trkpt lat="45.37483" lon="4.63158">
        <ele>786</ele>
        <time>2018-08-12T09:42:52Z</time>
      </trkpt>
      <trkpt lat="45.37479" lon="4.63141">
        <ele>789</ele>
        <time>2018-08-12T09:43:14Z</time>
      </trkpt>
      <trkpt lat="45.3749" lon="4.63121">
        <ele>790</ele>
        <time>2018-08-12T09:43:35Z</time>
      </trkpt>
      <trkpt lat="45.37494" lon="4.63099">
        <ele>792</ele>
        <time>2018-08-12T09:43:55Z</time>
      </trkpt>
      <trkpt lat="45.3749" lon="4.63082">
        <ele>798</ele>
        <time>2018-08-12T09:44:12Z</time>
      </trkpt>
      <trkpt lat="45.37482" lon="4.63069">
        <ele>802</ele>
        <time>2018-08-12T09:44:26Z</time>
      </trkpt>
      <trkpt lat="45.37477" lon="4.6307">
        <ele>803</ele>
        <time>2018-08-12T09:44:55Z</time>
      </trkpt>
      <trkpt lat="45.37465" lon="4.63057">
        <ele>806</ele>
        <time>2018-08-12T09:45:16Z</time>
      </trkpt>
      <trkpt lat="45.37455" lon="4.63045">
        <ele>808</ele>
        <time>2018-08-12T09:45:37Z</time>
      </trkpt>
      <trkpt lat="45.37447" lon="4.63035">
        <ele>810</ele>
        <time>2018-08-12T09:45:52Z</time>
      </trkpt>
      <trkpt lat="45.37441" lon="4.63026">
        <ele>812</ele>
        <time>2018-08-12T09:46:06Z</time>
      </trkpt>
      <trkpt lat="45.37432" lon="4.63018">
        <ele>814</ele>
        <time>2018-08-12T09:46:20Z</time>
      </trkpt>
      <trkpt lat="45.37425" lon="4.63014">
        <ele>816</ele>
        <time>2018-08-12T09:46:34Z</time>
      </trkpt>
      <trkpt lat="45.37415" lon="4.63007">
        <ele>823</ele>
        <time>2018-08-12T09:46:51Z</time>
      </trkpt>
      <trkpt lat="45.37402" lon="4.63006">
        <ele>823</ele>
        <time>2018-08-12T09:47:08Z</time>
      </trkpt>
      <trkpt lat="45.37392" lon="4.63003">
        <ele>824</ele>
        <time>2018-08-12T09:47:27Z</time>
      </trkpt>
      <trkpt lat="45.37382" lon="4.62996">
        <ele>837</ele>
        <time>2018-08-12T09:47:41Z</time>
      </trkpt>
      <trkpt lat="45.37378" lon="4.62992">
        <ele>838</ele>
        <time>2018-08-12T09:47:50Z</time>
      </trkpt>
      <trkpt lat="45.37368" lon="4.62991">
        <ele>839</ele>
        <time>2018-08-12T09:48:07Z</time>
      </trkpt>
      <trkpt lat="45.37365" lon="4.62986">
        <ele>840</ele>
        <time>2018-08-12T09:48:22Z</time>
      </trkpt>
      <trkpt lat="45.37359" lon="4.6297">
        <ele>841</ele>
        <time>2018-08-12T09:48:45Z</time>
      </trkpt>
      <trkpt lat="45.37346" lon="4.62961">
        <ele>843</ele>
        <time>2018-08-12T09:49:05Z</time>
      </trkpt>
      <trkpt lat="45.37341" lon="4.62965">
        <ele>843</ele>
        <time>2018-08-12T09:49:27Z</time>
      </trkpt>
      <trkpt lat="45.37337" lon="4.62969">
        <ele>842</ele>
        <time>2018-08-12T09:49:36Z</time>
      </trkpt>
      <trkpt lat="45.37322" lon="4.62976">
        <ele>850</ele>
        <time>2018-08-12T09:50:07Z</time>
      </trkpt>
      <trkpt lat="45.3731" lon="4.6298">
        <ele>851</ele>
        <time>2018-08-12T09:50:30Z</time>
      </trkpt>
      <trkpt lat="45.37297" lon="4.62983">
        <ele>853</ele>
        <time>2018-08-12T09:50:48Z</time>
      </trkpt>
      <trkpt lat="45.37286" lon="4.62984">
        <ele>855</ele>
        <time>2018-08-12T09:51:08Z</time>
      </trkpt>
      <trkpt lat="45.37275" lon="4.62977">
        <ele>856</ele>
        <time>2018-08-12T09:51:27Z</time>
      </trkpt>
      <trkpt lat="45.37264" lon="4.62967">
        <ele>857</ele>
        <time>2018-08-12T09:51:47Z</time>
      </trkpt>
      <trkpt lat="45.37257" lon="4.62952">
        <ele>858</ele>
        <time>2018-08-12T09:52:10Z</time>
      </trkpt>
      <trkpt lat="45.37252" lon="4.62933">
        <ele>860</ele>
        <time>2018-08-12T09:52:30Z</time>
      </trkpt>
      <trkpt lat="45.37244" lon="4.62918">
        <ele>863</ele>
        <time>2018-08-12T09:52:52Z</time>
      </trkpt>
      <trkpt lat="45.37249" lon="4.62911">
        <ele>863</ele>
        <time>2018-08-12T09:53:32Z</time>
      </trkpt>
      <trkpt lat="45.37262" lon="4.62898">
        <ele>864</ele>
        <time>2018-08-12T09:53:48Z</time>
      </trkpt>
      <trkpt lat="45.37271" lon="4.62885">
        <ele>865</ele>
        <time>2018-08-12T09:54:05Z</time>
      </trkpt>
      <trkpt lat="45.37274" lon="4.6288">
        <ele>865</ele>
        <time>2018-08-12T09:54:10Z</time>
      </trkpt>
      <trkpt lat="45.37278" lon="4.62872">
        <ele>865</ele>
        <time>2018-08-12T09:54:17Z</time>
      </trkpt>
      <trkpt lat="45.3729" lon="4.62858">
        <ele>866</ele>
        <time>2018-08-12T09:54:34Z</time>
      </trkpt>
      <trkpt lat="45.37295" lon="4.62849">
        <ele>867</ele>
        <time>2018-08-12T09:54:43Z</time>
      </trkpt>
      <trkpt lat="45.37305" lon="4.62837">
        <ele>868</ele>
        <time>2018-08-12T09:55:00Z</time>
      </trkpt>
      <trkpt lat="45.3731" lon="4.62813">
        <ele>876</ele>
        <time>2018-08-12T09:55:22Z</time>
      </trkpt>
      <trkpt lat="45.37313" lon="4.6279">
        <ele>879</ele>
        <time>2018-08-12T09:55:43Z</time>
      </trkpt>
      <trkpt lat="45.37309" lon="4.62771">
        <ele>881</ele>
        <time>2018-08-12T09:56:03Z</time>
      </trkpt>
      <trkpt lat="45.37307" lon="4.62746">
        <ele>890</ele>
        <time>2018-08-12T09:56:26Z</time>
      </trkpt>
      <trkpt lat="45.37306" lon="4.62722">
        <ele>891</ele>
        <time>2018-08-12T09:56:49Z</time>
      </trkpt>
      <trkpt lat="45.37304" lon="4.62696">
        <ele>893</ele>
        <time>2018-08-12T09:57:13Z</time>
      </trkpt>
      <trkpt lat="45.373" lon="4.62671">
        <ele>894</ele>
        <time>2018-08-12T09:57:39Z</time>
      </trkpt>
      <trkpt lat="45.37304" lon="4.62654">
        <ele>903</ele>
        <time>2018-08-12T09:57:58Z</time>
      </trkpt>
      <trkpt lat="45.373" lon="4.62628">
        <ele>904</ele>
        <time>2018-08-12T09:58:20Z</time>
      </trkpt>
      <trkpt lat="45.37302" lon="4.62608">
        <ele>906</ele>
        <time>2018-08-12T09:58:41Z</time>
      </trkpt>
      <trkpt lat="45.37304" lon="4.62585">
        <ele>909</ele>
        <time>2018-08-12T09:59:05Z</time>
      </trkpt>
      <trkpt lat="45.37302" lon="4.62565">
        <ele>918</ele>
        <time>2018-08-12T09:59:26Z</time>
      </trkpt>
      <trkpt lat="45.37297" lon="4.62547">
        <ele>919</ele>
        <time>2018-08-12T09:59:42Z</time>
      </trkpt>
      <trkpt lat="45.37293" lon="4.6253">
        <ele>920</ele>
        <time>2018-08-12T09:59:54Z</time>
      </trkpt>
      <trkpt lat="45.37289" lon="4.62518">
        <ele>920</ele>
        <time>2018-08-12T10:00:10Z</time>
      </trkpt>
      <trkpt lat="45.3728" lon="4.62508">
        <ele>919</ele>
        <time>2018-08-12T10:00:28Z</time>
      </trkpt>
      <trkpt lat="45.37269" lon="4.62494">
        <ele>925</ele>
        <time>2018-08-12T10:00:49Z</time>
      </trkpt>
      <trkpt lat="45.37263" lon="4.62474">
        <ele>928</ele>
        <time>2018-08-12T10:01:04Z</time>
      </trkpt>
      <trkpt lat="45.37252" lon="4.62448">
        <ele>931</ele>
        <time>2018-08-12T10:01:26Z</time>
      </trkpt>
      <trkpt lat="45.37254" lon="4.62428">
        <ele>931</ele>
        <time>2018-08-12T10:01:47Z</time>
      </trkpt>
      <trkpt lat="45.3726" lon="4.6241">
        <ele>937</ele>
        <time>2018-08-12T10:02:10Z</time>
      </trkpt>
      <trkpt lat="45.37267" lon="4.62396">
        <ele>942</ele>
        <time>2018-08-12T10:02:33Z</time>
      </trkpt>
      <trkpt lat="45.37277" lon="4.62388">
        <ele>945</ele>
        <time>2018-08-12T10:02:54Z</time>
      </trkpt>
      <trkpt lat="45.37277" lon="4.62387">
        <ele>945</ele>
        <time>2018-08-12T10:02:55Z</time>
      </trkpt>
      <trkpt lat="45.37287" lon="4.62376">
        <ele>947</ele>
        <time>2018-08-12T10:03:18Z</time>
      </trkpt>
      <trkpt lat="45.37291" lon="4.62348">
        <ele>950</ele>
        <time>2018-08-12T10:03:40Z</time>
      </trkpt>
      <trkpt lat="45.37291" lon="4.62346">
        <ele>950</ele>
        <time>2018-08-12T10:03:42Z</time>
      </trkpt>
      <trkpt lat="45.3729" lon="4.62334">
        <ele>950</ele>
        <time>2018-08-12T10:03:49Z</time>
      </trkpt>
      <trkpt lat="45.37292" lon="4.62311">
        <ele>958</ele>
        <time>2018-08-12T10:04:13Z</time>
      </trkpt>
      <trkpt lat="45.3729" lon="4.62295">
        <ele>959</ele>
        <time>2018-08-12T10:04:33Z</time>
      </trkpt>
      <trkpt lat="45.37291" lon="4.62276">
        <ele>960</ele>
        <time>2018-08-12T10:04:55Z</time>
      </trkpt>
      <trkpt lat="45.3729" lon="4.62255">
        <ele>960</ele>
        <time>2018-08-12T10:05:16Z</time>
      </trkpt>
      <trkpt lat="45.37282" lon="4.62229">
        <ele>968</ele>
        <time>2018-08-12T10:05:37Z</time>
      </trkpt>
      <trkpt lat="45.3727" lon="4.6221">
        <ele>970</ele>
        <time>2018-08-12T10:06:00Z</time>
      </trkpt>
      <trkpt lat="45.37272" lon="4.62209">
        <ele>970</ele>
        <time>2018-08-12T10:06:11Z</time>
      </trkpt>
      <trkpt lat="45.37266" lon="4.62199">
        <ele>971</ele>
        <time>2018-08-12T10:06:33Z</time>
      </trkpt>
      <trkpt lat="45.37257" lon="4.6219">
        <ele>971</ele>
        <time>2018-08-12T10:06:54Z</time>
      </trkpt>
      <trkpt lat="45.37238" lon="4.62165">
        <ele>977</ele>
        <time>2018-08-12T10:07:13Z</time>
      </trkpt>
      <trkpt lat="45.37226" lon="4.62154">
        <ele>979</ele>
        <time>2018-08-12T10:07:32Z</time>
      </trkpt>
      <trkpt lat="45.37217" lon="4.62147">
        <ele>980</ele>
        <time>2018-08-12T10:07:49Z</time>
      </trkpt>
      <trkpt lat="45.37218" lon="4.62131">
        <ele>983</ele>
        <time>2018-08-12T10:08:14Z</time>
      </trkpt>
      <trkpt lat="45.37221" lon="4.62127">
        <ele>983</ele>
        <time>2018-08-12T10:08:24Z</time>
      </trkpt>
      <trkpt lat="45.37237" lon="4.6212">
        <ele>985</ele>
        <time>2018-08-12T10:08:42Z</time>
      </trkpt>
      <trkpt lat="45.37242" lon="4.6212">
        <ele>986</ele>
        <time>2018-08-12T10:08:46Z</time>
      </trkpt>
      <trkpt lat="45.37259" lon="4.62107">
        <ele>995</ele>
        <time>2018-08-12T10:09:12Z</time>
      </trkpt>
      <trkpt lat="45.37277" lon="4.62105">
        <ele>995</ele>
        <time>2018-08-12T10:09:38Z</time>
      </trkpt>
      <trkpt lat="45.37296" lon="4.62114">
        <ele>995</ele>
        <time>2018-08-12T10:09:59Z</time>
      </trkpt>
      <trkpt lat="45.37299" lon="4.62115">
        <ele>995</ele>
        <time>2018-08-12T10:10:02Z</time>
      </trkpt>
      <trkpt lat="45.3731" lon="4.62117">
        <ele>995</ele>
        <time>2018-08-12T10:10:16Z</time>
      </trkpt>
      <trkpt lat="45.37312" lon="4.62114">
        <ele>996</ele>
        <time>2018-08-12T10:10:19Z</time>
      </trkpt>
      <trkpt lat="45.37309" lon="4.62111">
        <ele>996</ele>
        <time>2018-08-12T10:10:45Z</time>
      </trkpt>
      <trkpt lat="45.37296" lon="4.62103">
        <ele>996</ele>
        <time>2018-08-12T10:11:04Z</time>
      </trkpt>
      <trkpt lat="45.37276" lon="4.62091">
        <ele>997</ele>
        <time>2018-08-12T10:11:26Z</time>
      </trkpt>
      <trkpt lat="45.37256" lon="4.62079">
        <ele>1005</ele>
        <time>2018-08-12T10:11:49Z</time>
      </trkpt>
      <trkpt lat="45.37245" lon="4.62069">
        <ele>1004</ele>
        <time>2018-08-12T10:12:09Z</time>
      </trkpt>
      <trkpt lat="45.37229" lon="4.62057">
        <ele>1006</ele>
        <time>2018-08-12T10:12:33Z</time>
      </trkpt>
      <trkpt lat="45.37227" lon="4.62054">
        <ele>1006</ele>
        <time>2018-08-12T10:12:39Z</time>
      </trkpt>
      <trkpt lat="45.37213" lon="4.6204">
        <ele>1007</ele>
        <time>2018-08-12T10:13:04Z</time>
      </trkpt>
      <trkpt lat="45.37202" lon="4.6202">
        <ele>1008</ele>
        <time>2018-08-12T10:13:26Z</time>
      </trkpt>
      <trkpt lat="45.37199" lon="4.62004">
        <ele>1009</ele>
        <time>2018-08-12T10:13:48Z</time>
      </trkpt>
      <trkpt lat="45.37193" lon="4.61987">
        <ele>1023</ele>
        <time>2018-08-12T10:14:10Z</time>
      </trkpt>
      <trkpt lat="45.37185" lon="4.61969">
        <ele>1025</ele>
        <time>2018-08-12T10:14:30Z</time>
      </trkpt>
      <trkpt lat="45.3718" lon="4.61948">
        <ele>1029</ele>
        <time>2018-08-12T10:14:53Z</time>
      </trkpt>
      <trkpt lat="45.37163" lon="4.61937">
        <ele>1024</ele>
        <time>2018-08-12T10:15:11Z</time>
      </trkpt>
      <trkpt lat="45.37152" lon="4.61923">
        <ele>1026</ele>
        <time>2018-08-12T10:15:31Z</time>
      </trkpt>
      <trkpt lat="45.37141" lon="4.61903">
        <ele>1037</ele>
        <time>2018-08-12T10:15:53Z</time>
      </trkpt>
      <trkpt lat="45.37135" lon="4.61886">
        <ele>1039</ele>
        <time>2018-08-12T10:16:11Z</time>
      </trkpt>
      <trkpt lat="45.37117" lon="4.61871">
        <ele>1040</ele>
        <time>2018-08-12T10:16:30Z</time>
      </trkpt>
      <trkpt lat="45.37106" lon="4.61863">
        <ele>1040</ele>
        <time>2018-08-12T10:16:51Z</time>
      </trkpt>
      <trkpt lat="45.37102" lon="4.61855">
        <ele>1041</ele>
        <time>2018-08-12T10:17:10Z</time>
      </trkpt>
      <trkpt lat="45.37095" lon="4.61848">
        <ele>1042</ele>
        <time>2018-08-12T10:17:30Z</time>
      </trkpt>
      <trkpt lat="45.37084" lon="4.61841">
        <ele>1043</ele>
        <time>2018-08-12T10:17:49Z</time>
      </trkpt>
      <trkpt lat="45.37071" lon="4.61832">
        <ele>1049</ele>
        <time>2018-08-12T10:18:07Z</time>
      </trkpt>
      <trkpt lat="45.37055" lon="4.61823">
        <ele>1051</ele>
        <time>2018-08-12T10:18:24Z</time>
      </trkpt>
      <trkpt lat="45.3705" lon="4.61818">
        <ele>1052</ele>
        <time>2018-08-12T10:18:41Z</time>
      </trkpt>
      <trkpt lat="45.37048" lon="4.61814">
        <ele>1052</ele>
        <time>2018-08-12T10:18:57Z</time>
      </trkpt>
      <trkpt lat="45.37031" lon="4.61813">
        <ele>1053</ele>
        <time>2018-08-12T10:19:21Z</time>
      </trkpt>
      <trkpt lat="45.37026" lon="4.61813">
        <ele>1053</ele>
        <time>2018-08-12T10:19:25Z</time>
      </trkpt>
      <trkpt lat="45.37024" lon="4.61814">
        <ele>1053</ele>
        <time>2018-08-12T10:19:38Z</time>
      </trkpt>
      <trkpt lat="45.37012" lon="4.61817">
        <ele>1053</ele>
        <time>2018-08-12T10:19:58Z</time>
      </trkpt>
      <trkpt lat="45.37007" lon="4.61822">
        <ele>1053</ele>
        <time>2018-08-12T10:20:15Z</time>
      </trkpt>
      <trkpt lat="45.36992" lon="4.61817">
        <ele>1055</ele>
        <time>2018-08-12T10:20:33Z</time>
      </trkpt>
      <trkpt lat="45.36992" lon="4.61812">
        <ele>1055</ele>
        <time>2018-08-12T10:20:53Z</time>
      </trkpt>
      <trkpt lat="45.3698" lon="4.61813">
        <ele>1056</ele>
        <time>2018-08-12T10:21:11Z</time>
      </trkpt>
      <trkpt lat="45.36953" lon="4.61822">
        <ele>1057</ele>
        <time>2018-08-12T10:21:37Z</time>
      </trkpt>
      <trkpt lat="45.36941" lon="4.6182">
        <ele>1058</ele>
        <time>2018-08-12T10:21:56Z</time>
      </trkpt>
      <trkpt lat="45.36926" lon="4.61829">
        <ele>1060</ele>
        <time>2018-08-12T10:22:21Z</time>
      </trkpt>
      <trkpt lat="45.36931" lon="4.61828">
        <ele>1059</ele>
        <time>2018-08-12T10:22:54Z</time>
      </trkpt>
      <trkpt lat="45.36918" lon="4.6184">
        <ele>1060</ele>
        <time>2018-08-12T10:23:11Z</time>
      </trkpt>
      <trkpt lat="45.36902" lon="4.61852">
        <ele>1066</ele>
        <time>2018-08-12T10:23:33Z</time>
      </trkpt>
      <trkpt lat="45.36888" lon="4.61855">
        <ele>1068</ele>
        <time>2018-08-12T10:23:53Z</time>
      </trkpt>
      <trkpt lat="45.36873" lon="4.6186">
        <ele>1070</ele>
        <time>2018-08-12T10:24:13Z</time>
      </trkpt>
      <trkpt lat="45.36869" lon="4.61859">
        <ele>1070</ele>
        <time>2018-08-12T10:24:18Z</time>
      </trkpt>
      <trkpt lat="45.36862" lon="4.61875">
        <ele>1071</ele>
        <time>2018-08-12T10:24:39Z</time>
      </trkpt>
      <trkpt lat="45.3685" lon="4.61884">
        <ele>1073</ele>
        <time>2018-08-12T10:24:59Z</time>
      </trkpt>
      <trkpt lat="45.36836" lon="4.61894">
        <ele>1075</ele>
        <time>2018-08-12T10:25:21Z</time>
      </trkpt>
      <trkpt lat="45.3682" lon="4.61902">
        <ele>1083</ele>
        <time>2018-08-12T10:25:45Z</time>
      </trkpt>
      <trkpt lat="45.36808" lon="4.61906">
        <ele>1084</ele>
        <time>2018-08-12T10:26:05Z</time>
      </trkpt>
      <trkpt lat="45.36799" lon="4.61919">
        <ele>1090</ele>
        <time>2018-08-12T10:26:24Z</time>
      </trkpt>
      <trkpt lat="45.3679" lon="4.61933">
        <ele>1091</ele>
        <time>2018-08-12T10:26:45Z</time>
      </trkpt>
      <trkpt lat="45.36784" lon="4.6194">
        <ele>1092</ele>
        <time>2018-08-12T10:27:04Z</time>
      </trkpt>
      <trkpt lat="45.36782" lon="4.61952">
        <ele>1092</ele>
        <time>2018-08-12T10:27:19Z</time>
      </trkpt>
      <trkpt lat="45.36778" lon="4.61976">
        <ele>1094</ele>
        <time>2018-08-12T10:27:45Z</time>
      </trkpt>
      <trkpt lat="45.36779" lon="4.61996">
        <ele>1095</ele>
        <time>2018-08-12T10:28:08Z</time>
      </trkpt>
      <trkpt lat="45.36783" lon="4.62023">
        <ele>1092</ele>
        <time>2018-08-12T10:28:34Z</time>
      </trkpt>
      <trkpt lat="45.36772" lon="4.62026">
        <ele>1094</ele>
        <time>2018-08-12T10:28:54Z</time>
      </trkpt>
      <trkpt lat="45.36769" lon="4.62022">
        <ele>1095</ele>
        <time>2018-08-12T10:29:22Z</time>
      </trkpt>
      <trkpt lat="45.36765" lon="4.62015">
        <ele>1097</ele>
        <time>2018-08-12T10:29:48Z</time>
      </trkpt>
      <trkpt lat="45.3676" lon="4.62009">
        <ele>1099</ele>
        <time>2018-08-12T10:30:11Z</time>
      </trkpt>
      <trkpt lat="45.36756" lon="4.62002">
        <ele>1102</ele>
        <time>2018-08-12T10:30:28Z</time>
      </trkpt>
      <trkpt lat="45.3674" lon="4.6199">
        <ele>1106</ele>
        <time>2018-08-12T10:30:55Z</time>
      </trkpt>
      <trkpt lat="45.36729" lon="4.62001">
        <ele>1106</ele>
        <time>2018-08-12T10:31:17Z</time>
      </trkpt>
      <trkpt lat="45.36726" lon="4.62017">
        <ele>1106</ele>
        <time>2018-08-12T10:31:39Z</time>
      </trkpt>
      <trkpt lat="45.36726" lon="4.62046">
        <ele>1104</ele>
        <time>2018-08-12T10:32:08Z</time>
      </trkpt>
      <trkpt lat="45.36721" lon="4.62048">
        <ele>1104</ele>
        <time>2018-08-12T10:32:35Z</time>
      </trkpt>
      <trkpt lat="45.36723" lon="4.62052">
        <ele>1104</ele>
        <time>2018-08-12T10:33:20Z</time>
      </trkpt>
      <trkpt lat="45.36725" lon="4.62069">
        <ele>1103</ele>
        <time>2018-08-12T10:33:38Z</time>
      </trkpt>
      <trkpt lat="45.36728" lon="4.62072">
        <ele>1103</ele>
        <time>2018-08-12T10:33:52Z</time>
      </trkpt>
      <trkpt lat="45.36724" lon="4.62042">
        <ele>1104</ele>
        <time>2018-08-12T11:16:04Z</time>
      </trkpt>
      <trkpt lat="45.36728" lon="4.62024">
        <ele>1105</ele>
        <time>2018-08-12T11:16:26Z</time>
      </trkpt>
      <trkpt lat="45.36725" lon="4.62003">
        <ele>1106</ele>
        <time>2018-08-12T11:16:49Z</time>
      </trkpt>
      <trkpt lat="45.36732" lon="4.61986">
        <ele>1106</ele>
        <time>2018-08-12T11:17:15Z</time>
      </trkpt>
      <trkpt lat="45.36747" lon="4.61997">
        <ele>1106</ele>
        <time>2018-08-12T11:17:36Z</time>
      </trkpt>
      <trkpt lat="45.36761" lon="4.62003">
        <ele>1100</ele>
        <time>2018-08-12T11:17:55Z</time>
      </trkpt>
      <trkpt lat="45.36771" lon="4.62015">
        <ele>1095</ele>
        <time>2018-08-12T11:18:11Z</time>
      </trkpt>
      <trkpt lat="45.36778" lon="4.62025">
        <ele>1093</ele>
        <time>2018-08-12T11:18:29Z</time>
      </trkpt>
      <trkpt lat="45.36783" lon="4.62012">
        <ele>1093</ele>
        <time>2018-08-12T11:18:43Z</time>
      </trkpt>
      <trkpt lat="45.36778" lon="4.61992">
        <ele>1095</ele>
        <time>2018-08-12T11:19:03Z</time>
      </trkpt>
      <trkpt lat="45.36778" lon="4.61984">
        <ele>1095</ele>
        <time>2018-08-12T11:19:24Z</time>
      </trkpt>
      <trkpt lat="45.36772" lon="4.61971">
        <ele>1095</ele>
        <time>2018-08-12T11:20:15Z</time>
      </trkpt>
      <trkpt lat="45.36778" lon="4.61949">
        <ele>1093</ele>
        <time>2018-08-12T11:20:36Z</time>
      </trkpt>
      <trkpt lat="45.36781" lon="4.61924">
        <ele>1092</ele>
        <time>2018-08-12T11:20:57Z</time>
      </trkpt>
      <trkpt lat="45.3678" lon="4.61916">
        <ele>1087</ele>
        <time>2018-08-12T11:21:06Z</time>
      </trkpt>
      <trkpt lat="45.36778" lon="4.61892">
        <ele>1086</ele>
        <time>2018-08-12T11:21:26Z</time>
      </trkpt>
      <trkpt lat="45.36782" lon="4.61871">
        <ele>1084</ele>
        <time>2018-08-12T11:21:45Z</time>
      </trkpt>
      <trkpt lat="45.36777" lon="4.61855">
        <ele>1083</ele>
        <time>2018-08-12T11:22:02Z</time>
      </trkpt>
      <trkpt lat="45.3677" lon="4.61822">
        <ele>1078</ele>
        <time>2018-08-12T11:22:27Z</time>
      </trkpt>
      <trkpt lat="45.36768" lon="4.61791">
        <ele>1076</ele>
        <time>2018-08-12T11:22:49Z</time>
      </trkpt>
      <trkpt lat="45.36774" lon="4.61771">
        <ele>1076</ele>
        <time>2018-08-12T11:23:07Z</time>
      </trkpt>
      <trkpt lat="45.3679" lon="4.61755">
        <ele>1074</ele>
        <time>2018-08-12T11:23:30Z</time>
      </trkpt>
      <trkpt lat="45.3681" lon="4.61754">
        <ele>1072</ele>
        <time>2018-08-12T11:23:54Z</time>
      </trkpt>
      <trkpt lat="45.3683" lon="4.61746">
        <ele>1067</ele>
        <time>2018-08-12T11:24:19Z</time>
      </trkpt>
      <trkpt lat="45.36842" lon="4.61735">
        <ele>1064</ele>
        <time>2018-08-12T11:24:41Z</time>
      </trkpt>
      <trkpt lat="45.36858" lon="4.61718">
        <ele>1063</ele>
        <time>2018-08-12T11:24:57Z</time>
      </trkpt>
      <trkpt lat="45.3687" lon="4.61696">
        <ele>1062</ele>
        <time>2018-08-12T11:25:16Z</time>
      </trkpt>
      <trkpt lat="45.36875" lon="4.61676">
        <ele>1061</ele>
        <time>2018-08-12T11:25:34Z</time>
      </trkpt>
      <trkpt lat="45.3689" lon="4.61664">
        <ele>1059</ele>
        <time>2018-08-12T11:28:08Z</time>
      </trkpt>
      <trkpt lat="45.36905" lon="4.61653">
        <ele>1059</ele>
        <time>2018-08-12T11:28:24Z</time>
      </trkpt>
      <trkpt lat="45.36918" lon="4.61637">
        <ele>1059</ele>
        <time>2018-08-12T11:28:40Z</time>
      </trkpt>
      <trkpt lat="45.36936" lon="4.61618">
        <ele>1059</ele>
        <time>2018-08-12T11:28:59Z</time>
      </trkpt>
      <trkpt lat="45.36941" lon="4.61616">
        <ele>1059</ele>
        <time>2018-08-12T11:29:03Z</time>
      </trkpt>
      <trkpt lat="45.36946" lon="4.61615">
        <ele>1060</ele>
        <time>2018-08-12T11:29:08Z</time>
      </trkpt>
      <trkpt lat="45.36954" lon="4.61614">
        <ele>1060</ele>
        <time>2018-08-12T11:29:13Z</time>
      </trkpt>
      <trkpt lat="45.36963" lon="4.61614">
        <ele>1060</ele>
        <time>2018-08-12T11:29:29Z</time>
      </trkpt>
      <trkpt lat="45.36967" lon="4.61614">
        <ele>1060</ele>
        <time>2018-08-12T11:29:35Z</time>
      </trkpt>
      <trkpt lat="45.36989" lon="4.61605">
        <ele>1061</ele>
        <time>2018-08-12T11:30:00Z</time>
      </trkpt>
      <trkpt lat="45.37019" lon="4.61594">
        <ele>1068</ele>
        <time>2018-08-12T11:30:25Z</time>
      </trkpt>
      <trkpt lat="45.3703" lon="4.61594">
        <ele>1070</ele>
        <time>2018-08-12T11:30:38Z</time>
      </trkpt>
      <trkpt lat="45.37051" lon="4.61611">
        <ele>1072</ele>
        <time>2018-08-12T11:31:04Z</time>
      </trkpt>
      <trkpt lat="45.3707" lon="4.61635">
        <ele>1072</ele>
        <time>2018-08-12T11:31:32Z</time>
      </trkpt>
      <trkpt lat="45.3709" lon="4.61653">
        <ele>1081</ele>
        <time>2018-08-12T11:31:54Z</time>
      </trkpt>
      <trkpt lat="45.37104" lon="4.61664">
        <ele>1084</ele>
        <time>2018-08-12T11:32:14Z</time>
      </trkpt>
      <trkpt lat="45.3712" lon="4.61677">
        <ele>1080</ele>
        <time>2018-08-12T11:32:37Z</time>
      </trkpt>
      <trkpt lat="45.37135" lon="4.61684">
        <ele>1083</ele>
        <time>2018-08-12T11:32:54Z</time>
      </trkpt>
      <trkpt lat="45.37153" lon="4.61689">
        <ele>1086</ele>
        <time>2018-08-12T11:33:15Z</time>
      </trkpt>
      <trkpt lat="45.37174" lon="4.6169">
        <ele>1100</ele>
        <time>2018-08-12T11:33:37Z</time>
      </trkpt>
      <trkpt lat="45.3719" lon="4.61693">
        <ele>1101</ele>
        <time>2018-08-12T11:34:00Z</time>
      </trkpt>
      <trkpt lat="45.37204" lon="4.61693">
        <ele>1103</ele>
        <time>2018-08-12T11:34:23Z</time>
      </trkpt>
      <trkpt lat="45.37224" lon="4.617">
        <ele>1105</ele>
        <time>2018-08-12T11:34:47Z</time>
      </trkpt>
      <trkpt lat="45.37229" lon="4.61703">
        <ele>1105</ele>
        <time>2018-08-12T11:34:52Z</time>
      </trkpt>
      <trkpt lat="45.37233" lon="4.61703">
        <ele>1106</ele>
        <time>2018-08-12T11:34:57Z</time>
      </trkpt>
      <trkpt lat="45.37234" lon="4.61705">
        <ele>1106</ele>
        <time>2018-08-12T11:35:03Z</time>
      </trkpt>
      <trkpt lat="45.37252" lon="4.61714">
        <ele>1119</ele>
        <time>2018-08-12T11:35:29Z</time>
      </trkpt>
      <trkpt lat="45.37271" lon="4.61727">
        <ele>1119</ele>
        <time>2018-08-12T11:35:57Z</time>
      </trkpt>
      <trkpt lat="45.37288" lon="4.61746">
        <ele>1120</ele>
        <time>2018-08-12T11:36:21Z</time>
      </trkpt>
      <trkpt lat="45.37311" lon="4.61754">
        <ele>1112</ele>
        <time>2018-08-12T11:36:43Z</time>
      </trkpt>
      <trkpt lat="45.37331" lon="4.61766">
        <ele>1114</ele>
        <time>2018-08-12T11:37:07Z</time>
      </trkpt>
      <trkpt lat="45.37352" lon="4.61772">
        <ele>1119</ele>
        <time>2018-08-12T11:37:31Z</time>
      </trkpt>
      <trkpt lat="45.37375" lon="4.61777">
        <ele>1120</ele>
        <time>2018-08-12T11:37:56Z</time>
      </trkpt>
      <trkpt lat="45.37394" lon="4.61769">
        <ele>1123</ele>
        <time>2018-08-12T11:38:15Z</time>
      </trkpt>
      <trkpt lat="45.37405" lon="4.61765">
        <ele>1125</ele>
        <time>2018-08-12T11:38:36Z</time>
      </trkpt>
      <trkpt lat="45.37407" lon="4.61763">
        <ele>1126</ele>
        <time>2018-08-12T11:38:40Z</time>
      </trkpt>
      <trkpt lat="45.37415" lon="4.61754">
        <ele>1132</ele>
        <time>2018-08-12T11:38:56Z</time>
      </trkpt>
      <trkpt lat="45.37421" lon="4.61751">
        <ele>1133</ele>
        <time>2018-08-12T11:39:12Z</time>
      </trkpt>
      <trkpt lat="45.37428" lon="4.61751">
        <ele>1133</ele>
        <time>2018-08-12T11:39:19Z</time>
      </trkpt>
      <trkpt lat="45.37432" lon="4.61751">
        <ele>1133</ele>
        <time>2018-08-12T11:39:23Z</time>
      </trkpt>
      <trkpt lat="45.37447" lon="4.6175">
        <ele>1144</ele>
        <time>2018-08-12T11:39:45Z</time>
      </trkpt>
      <trkpt lat="45.37462" lon="4.61755">
        <ele>1134</ele>
        <time>2018-08-12T11:40:09Z</time>
      </trkpt>
      <trkpt lat="45.37463" lon="4.61755">
        <ele>1134</ele>
        <time>2018-08-12T11:40:11Z</time>
      </trkpt>
      <trkpt lat="45.37475" lon="4.61757">
        <ele>1136</ele>
        <time>2018-08-12T11:40:23Z</time>
      </trkpt>
      <trkpt lat="45.37495" lon="4.61751">
        <ele>1142</ele>
        <time>2018-08-12T11:40:52Z</time>
      </trkpt>
      <trkpt lat="45.37509" lon="4.61752">
        <ele>1145</ele>
        <time>2018-08-12T11:41:16Z</time>
      </trkpt>
      <trkpt lat="45.3752" lon="4.61759">
        <ele>1145</ele>
        <time>2018-08-12T11:41:26Z</time>
      </trkpt>
      <trkpt lat="45.37536" lon="4.61782">
        <ele>1145</ele>
        <time>2018-08-12T11:41:49Z</time>
      </trkpt>
      <trkpt lat="45.37551" lon="4.61807">
        <ele>1144</ele>
        <time>2018-08-12T11:42:10Z</time>
      </trkpt>
      <trkpt lat="45.37567" lon="4.61842">
        <ele>1135</ele>
        <time>2018-08-12T11:42:34Z</time>
      </trkpt>
      <trkpt lat="45.37572" lon="4.61845">
        <ele>1136</ele>
        <time>2018-08-12T11:42:37Z</time>
      </trkpt>
      <trkpt lat="45.37585" lon="4.61882">
        <ele>1133</ele>
        <time>2018-08-12T11:42:59Z</time>
      </trkpt>
      <trkpt lat="45.37586" lon="4.61885">
        <ele>1132</ele>
        <time>2018-08-12T11:43:02Z</time>
      </trkpt>
      <trkpt lat="45.37593" lon="4.61895">
        <ele>1131</ele>
        <time>2018-08-12T11:43:11Z</time>
      </trkpt>
      <trkpt lat="45.37603" lon="4.61923">
        <ele>1115</ele>
        <time>2018-08-12T11:43:30Z</time>
      </trkpt>
      <trkpt lat="45.37609" lon="4.6193">
        <ele>1113</ele>
        <time>2018-08-12T11:43:37Z</time>
      </trkpt>
      <trkpt lat="45.3762" lon="4.61933">
        <ele>1111</ele>
        <time>2018-08-12T11:43:58Z</time>
      </trkpt>
      <trkpt lat="45.37635" lon="4.61936">
        <ele>1111</ele>
        <time>2018-08-12T11:44:18Z</time>
      </trkpt>
      <trkpt lat="45.37649" lon="4.61932">
        <ele>1112</ele>
        <time>2018-08-12T11:44:29Z</time>
      </trkpt>
      <trkpt lat="45.37671" lon="4.61923">
        <ele>1114</ele>
        <time>2018-08-12T11:44:45Z</time>
      </trkpt>
      <trkpt lat="45.37685" lon="4.61933">
        <ele>1104</ele>
        <time>2018-08-12T11:45:00Z</time>
      </trkpt>
      <trkpt lat="45.37691" lon="4.61939">
        <ele>1101</ele>
        <time>2018-08-12T11:45:06Z</time>
      </trkpt>
      <trkpt lat="45.37702" lon="4.61945">
        <ele>1097</ele>
        <time>2018-08-12T11:45:19Z</time>
      </trkpt>
      <trkpt lat="45.37714" lon="4.61941">
        <ele>1097</ele>
        <time>2018-08-12T11:45:36Z</time>
      </trkpt>
      <trkpt lat="45.3772" lon="4.61938">
        <ele>1096</ele>
        <time>2018-08-12T11:45:43Z</time>
      </trkpt>
      <trkpt lat="45.37731" lon="4.61936">
        <ele>1096</ele>
        <time>2018-08-12T11:46:16Z</time>
      </trkpt>
      <trkpt lat="45.37735" lon="4.61936">
        <ele>1096</ele>
        <time>2018-08-12T11:46:32Z</time>
      </trkpt>
      <trkpt lat="45.37738" lon="4.61928">
        <ele>1097</ele>
        <time>2018-08-12T11:46:37Z</time>
      </trkpt>
      <trkpt lat="45.37756" lon="4.61914">
        <ele>1102</ele>
        <time>2018-08-12T11:46:56Z</time>
      </trkpt>
      <trkpt lat="45.37774" lon="4.6191">
        <ele>1102</ele>
        <time>2018-08-12T11:47:10Z</time>
      </trkpt>
      <trkpt lat="45.37788" lon="4.61914">
        <ele>1099</ele>
        <time>2018-08-12T11:47:22Z</time>
      </trkpt>
      <trkpt lat="45.37796" lon="4.61917">
        <ele>1097</ele>
        <time>2018-08-12T11:47:35Z</time>
      </trkpt>
      <trkpt lat="45.37807" lon="4.61916">
        <ele>1094</ele>
        <time>2018-08-12T11:47:50Z</time>
      </trkpt>
      <trkpt lat="45.37822" lon="4.61919">
        <ele>1075</ele>
        <time>2018-08-12T11:48:04Z</time>
      </trkpt>
      <trkpt lat="45.37841" lon="4.61921">
        <ele>1070</ele>
        <time>2018-08-12T11:48:23Z</time>
      </trkpt>
      <trkpt lat="45.37865" lon="4.61915">
        <ele>1082</ele>
        <time>2018-08-12T11:48:41Z</time>
      </trkpt>
      <trkpt lat="45.37881" lon="4.61921">
        <ele>1061</ele>
        <time>2018-08-12T11:49:03Z</time>
      </trkpt>
      <trkpt lat="45.37892" lon="4.61927">
        <ele>1061</ele>
        <time>2018-08-12T11:49:24Z</time>
      </trkpt>
      <trkpt lat="45.37901" lon="4.61932">
        <ele>1061</ele>
        <time>2018-08-12T11:49:39Z</time>
      </trkpt>
      <trkpt lat="45.37913" lon="4.61938">
        <ele>1060</ele>
        <time>2018-08-12T11:50:14Z</time>
      </trkpt>
      <trkpt lat="45.37926" lon="4.61949">
        <ele>1054</ele>
        <time>2018-08-12T11:50:27Z</time>
      </trkpt>
      <trkpt lat="45.37936" lon="4.6195">
        <ele>1053</ele>
        <time>2018-08-12T11:50:38Z</time>
      </trkpt>
      <trkpt lat="45.37953" lon="4.61951">
        <ele>1052</ele>
        <time>2018-08-12T11:50:54Z</time>
      </trkpt>
      <trkpt lat="45.37971" lon="4.61959">
        <ele>1051</ele>
        <time>2018-08-12T11:51:18Z</time>
      </trkpt>
      <trkpt lat="45.37977" lon="4.61968">
        <ele>1049</ele>
        <time>2018-08-12T11:51:31Z</time>
      </trkpt>
      <trkpt lat="45.37985" lon="4.6198">
        <ele>1046</ele>
        <time>2018-08-12T11:51:46Z</time>
      </trkpt>
      <trkpt lat="45.37992" lon="4.61991">
        <ele>1043</ele>
        <time>2018-08-12T11:51:59Z</time>
      </trkpt>
      <trkpt lat="45.38015" lon="4.62004">
        <ele>1030</ele>
        <time>2018-08-12T11:52:25Z</time>
      </trkpt>
      <trkpt lat="45.38037" lon="4.62011">
        <ele>1026</ele>
        <time>2018-08-12T11:52:45Z</time>
      </trkpt>
      <trkpt lat="45.38052" lon="4.62017">
        <ele>1025</ele>
        <time>2018-08-12T11:53:05Z</time>
      </trkpt>
      <trkpt lat="45.38074" lon="4.62021">
        <ele>1026</ele>
        <time>2018-08-12T11:53:21Z</time>
      </trkpt>
      <trkpt lat="45.38088" lon="4.62031">
        <ele>1025</ele>
        <time>2018-08-12T11:53:43Z</time>
      </trkpt>
      <trkpt lat="45.38101" lon="4.62039">
        <ele>1024</ele>
        <time>2018-08-12T11:54:06Z</time>
      </trkpt>
      <trkpt lat="45.38121" lon="4.62051">
        <ele>1023</ele>
        <time>2018-08-12T11:54:29Z</time>
      </trkpt>
      <trkpt lat="45.38137" lon="4.62069">
        <ele>1021</ele>
        <time>2018-08-12T11:54:51Z</time>
      </trkpt>
      <trkpt lat="45.38151" lon="4.62076">
        <ele>1020</ele>
        <time>2018-08-12T11:55:05Z</time>
      </trkpt>
      <trkpt lat="45.38156" lon="4.62098">
        <ele>1010</ele>
        <time>2018-08-12T11:55:25Z</time>
      </trkpt>
      <trkpt lat="45.38154" lon="4.62128">
        <ele>1005</ele>
        <time>2018-08-12T11:55:45Z</time>
      </trkpt>
      <trkpt lat="45.38155" lon="4.62137">
        <ele>1004</ele>
        <time>2018-08-12T11:56:00Z</time>
      </trkpt>
      <trkpt lat="45.38153" lon="4.62151">
        <ele>1004</ele>
        <time>2018-08-12T11:56:12Z</time>
      </trkpt>
      <trkpt lat="45.38154" lon="4.62159">
        <ele>1004</ele>
        <time>2018-08-12T11:56:15Z</time>
      </trkpt>
      <trkpt lat="45.38155" lon="4.62194">
        <ele>995</ele>
        <time>2018-08-12T11:56:35Z</time>
      </trkpt>
      <trkpt lat="45.38163" lon="4.62228">
        <ele>992</ele>
        <time>2018-08-12T11:56:58Z</time>
      </trkpt>
      <trkpt lat="45.38167" lon="4.62238">
        <ele>992</ele>
        <time>2018-08-12T11:57:09Z</time>
      </trkpt>
      <trkpt lat="45.38176" lon="4.62257">
        <ele>991</ele>
        <time>2018-08-12T11:57:37Z</time>
      </trkpt>
      <trkpt lat="45.38188" lon="4.62264">
        <ele>990</ele>
        <time>2018-08-12T11:57:52Z</time>
      </trkpt>
      <trkpt lat="45.38207" lon="4.62284">
        <ele>989</ele>
        <time>2018-08-12T11:58:15Z</time>
      </trkpt>
      <trkpt lat="45.38229" lon="4.62307">
        <ele>988</ele>
        <time>2018-08-12T11:58:35Z</time>
      </trkpt>
      <trkpt lat="45.38242" lon="4.62327">
        <ele>985</ele>
        <time>2018-08-12T11:58:56Z</time>
      </trkpt>
      <trkpt lat="45.38256" lon="4.6235">
        <ele>982</ele>
        <time>2018-08-12T11:59:16Z</time>
      </trkpt>
      <trkpt lat="45.38263" lon="4.62372">
        <ele>979</ele>
        <time>2018-08-12T11:59:31Z</time>
      </trkpt>
      <trkpt lat="45.38268" lon="4.62385">
        <ele>977</ele>
        <time>2018-08-12T11:59:43Z</time>
      </trkpt>
      <trkpt lat="45.38273" lon="4.62419">
        <ele>967</ele>
        <time>2018-08-12T12:00:06Z</time>
      </trkpt>
      <trkpt lat="45.38277" lon="4.62413">
        <ele>975</ele>
        <time>2018-08-12T12:00:35Z</time>
      </trkpt>
      <trkpt lat="45.3828" lon="4.62408">
        <ele>976</ele>
        <time>2018-08-12T12:00:49Z</time>
      </trkpt>
      <trkpt lat="45.38285" lon="4.62406">
        <ele>977</ele>
        <time>2018-08-12T12:00:55Z</time>
      </trkpt>
      <trkpt lat="45.38303" lon="4.62411">
        <ele>979</ele>
        <time>2018-08-12T12:01:18Z</time>
      </trkpt>
      <trkpt lat="45.38315" lon="4.62419">
        <ele>975</ele>
        <time>2018-08-12T12:01:36Z</time>
      </trkpt>
      <trkpt lat="45.38325" lon="4.6243">
        <ele>976</ele>
        <time>2018-08-12T12:01:54Z</time>
      </trkpt>
      <trkpt lat="45.38341" lon="4.62443">
        <ele>988</ele>
        <time>2018-08-12T12:02:16Z</time>
      </trkpt>
      <trkpt lat="45.38351" lon="4.62462">
        <ele>990</ele>
        <time>2018-08-12T12:02:34Z</time>
      </trkpt>
      <trkpt lat="45.3836" lon="4.62467">
        <ele>991</ele>
        <time>2018-08-12T12:02:39Z</time>
      </trkpt>
      <trkpt lat="45.38362" lon="4.62468">
        <ele>991</ele>
        <time>2018-08-12T12:02:41Z</time>
      </trkpt>
      <trkpt lat="45.38364" lon="4.62471">
        <ele>991</ele>
        <time>2018-08-12T12:02:44Z</time>
      </trkpt>
      <trkpt lat="45.38376" lon="4.62494">
        <ele>993</ele>
        <time>2018-08-12T12:03:12Z</time>
      </trkpt>
      <trkpt lat="45.38387" lon="4.62505">
        <ele>996</ele>
        <time>2018-08-12T12:03:32Z</time>
      </trkpt>
      <trkpt lat="45.38399" lon="4.62513">
        <ele>998</ele>
        <time>2018-08-12T12:03:51Z</time>
      </trkpt>
      <trkpt lat="45.38402" lon="4.62536">
        <ele>998</ele>
        <time>2018-08-12T12:04:13Z</time>
      </trkpt>
      <trkpt lat="45.38399" lon="4.62563">
        <ele>1000</ele>
        <time>2018-08-12T12:04:36Z</time>
      </trkpt>
      <trkpt lat="45.38395" lon="4.6259">
        <ele>1005</ele>
        <time>2018-08-12T12:04:55Z</time>
      </trkpt>
      <trkpt lat="45.38395" lon="4.62609">
        <ele>1004</ele>
        <time>2018-08-12T12:05:16Z</time>
      </trkpt>
      <trkpt lat="45.38396" lon="4.62628">
        <ele>1005</ele>
        <time>2018-08-12T12:05:35Z</time>
      </trkpt>
      <trkpt lat="45.38398" lon="4.62647">
        <ele>1007</ele>
        <time>2018-08-12T12:05:54Z</time>
      </trkpt>
      <trkpt lat="45.38402" lon="4.62648">
        <ele>1008</ele>
        <time>2018-08-12T12:05:59Z</time>
      </trkpt>
      <trkpt lat="45.38406" lon="4.62659">
        <ele>1010</ele>
        <time>2018-08-12T12:06:23Z</time>
      </trkpt>
      <trkpt lat="45.38408" lon="4.62676">
        <ele>1014</ele>
        <time>2018-08-12T12:06:47Z</time>
      </trkpt>
      <trkpt lat="45.38408" lon="4.62678">
        <ele>1013</ele>
        <time>2018-08-12T12:06:49Z</time>
      </trkpt>
      <trkpt lat="45.38406" lon="4.6269">
        <ele>1013</ele>
        <time>2018-08-12T12:07:04Z</time>
      </trkpt>
      <trkpt lat="45.38412" lon="4.62714">
        <ele>1014</ele>
        <time>2018-08-12T12:07:30Z</time>
      </trkpt>
      <trkpt lat="45.38414" lon="4.6274">
        <ele>1019</ele>
        <time>2018-08-12T12:07:52Z</time>
      </trkpt>
      <trkpt lat="45.38419" lon="4.62764">
        <ele>1031</ele>
        <time>2018-08-12T12:08:15Z</time>
      </trkpt>
      <trkpt lat="45.38421" lon="4.6279">
        <ele>1036</ele>
        <time>2018-08-12T12:08:41Z</time>
      </trkpt>
      <trkpt lat="45.38431" lon="4.62809">
        <ele>1037</ele>
        <time>2018-08-12T12:08:59Z</time>
      </trkpt>
      <trkpt lat="45.38435" lon="4.62826">
        <ele>1036</ele>
        <time>2018-08-12T12:09:22Z</time>
      </trkpt>
      <trkpt lat="45.38443" lon="4.62851">
        <ele>1040</ele>
        <time>2018-08-12T12:09:39Z</time>
      </trkpt>
      <trkpt lat="45.38453" lon="4.62874">
        <ele>1042</ele>
        <time>2018-08-12T12:10:08Z</time>
      </trkpt>
      <trkpt lat="45.38463" lon="4.62893">
        <ele>1044</ele>
        <time>2018-08-12T12:10:30Z</time>
      </trkpt>
      <trkpt lat="45.38472" lon="4.62911">
        <ele>1046</ele>
        <time>2018-08-12T12:10:50Z</time>
      </trkpt>
      <trkpt lat="45.38482" lon="4.6292">
        <ele>1047</ele>
        <time>2018-08-12T12:11:07Z</time>
      </trkpt>
      <trkpt lat="45.38486" lon="4.62933">
        <ele>1046</ele>
        <time>2018-08-12T12:11:28Z</time>
      </trkpt>
      <trkpt lat="45.38493" lon="4.62956">
        <ele>1044</ele>
        <time>2018-08-12T12:11:50Z</time>
      </trkpt>
      <trkpt lat="45.38503" lon="4.62986">
        <ele>1057</ele>
        <time>2018-08-12T12:12:13Z</time>
      </trkpt>
      <trkpt lat="45.3851" lon="4.63007">
        <ele>1055</ele>
        <time>2018-08-12T12:12:31Z</time>
      </trkpt>
      <trkpt lat="45.38519" lon="4.63016">
        <ele>1059</ele>
        <time>2018-08-12T12:12:50Z</time>
      </trkpt>
      <trkpt lat="45.38517" lon="4.63036">
        <ele>1060</ele>
        <time>2018-08-12T12:13:05Z</time>
      </trkpt>
      <trkpt lat="45.38519" lon="4.63051">
        <ele>1060</ele>
        <time>2018-08-12T12:13:13Z</time>
      </trkpt>
      <trkpt lat="45.38519" lon="4.63055">
        <ele>1059</ele>
        <time>2018-08-12T12:13:15Z</time>
      </trkpt>
      <trkpt lat="45.3852" lon="4.63063">
        <ele>1059</ele>
        <time>2018-08-12T12:13:21Z</time>
      </trkpt>
      <trkpt lat="45.38524" lon="4.63115">
        <ele>1057</ele>
        <time>2018-08-12T12:13:47Z</time>
      </trkpt>
      <trkpt lat="45.38526" lon="4.6314">
        <ele>1057</ele>
        <time>2018-08-12T12:14:01Z</time>
      </trkpt>
      <trkpt lat="45.38528" lon="4.63162">
        <ele>1056</ele>
        <time>2018-08-12T12:14:13Z</time>
      </trkpt>
      <trkpt lat="45.38528" lon="4.63176">
        <ele>1053</ele>
        <time>2018-08-12T12:14:34Z</time>
      </trkpt>
      <trkpt lat="45.38526" lon="4.63185">
        <ele>1053</ele>
        <time>2018-08-12T12:14:43Z</time>
      </trkpt>
      <trkpt lat="45.38514" lon="4.63211">
        <ele>1052</ele>
        <time>2018-08-12T12:15:06Z</time>
      </trkpt>
      <trkpt lat="45.38499" lon="4.63227">
        <ele>1037</ele>
        <time>2018-08-12T12:15:24Z</time>
      </trkpt>
      <trkpt lat="45.38485" lon="4.63235">
        <ele>1036</ele>
        <time>2018-08-12T12:15:41Z</time>
      </trkpt>
      <trkpt lat="45.38463" lon="4.63247">
        <ele>1032</ele>
        <time>2018-08-12T12:15:59Z</time>
      </trkpt>
      <trkpt lat="45.38454" lon="4.63249">
        <ele>1031</ele>
        <time>2018-08-12T12:16:13Z</time>
      </trkpt>
      <trkpt lat="45.38438" lon="4.63261">
        <ele>1026</ele>
        <time>2018-08-12T12:16:33Z</time>
      </trkpt>
      <trkpt lat="45.38424" lon="4.63271">
        <ele>1025</ele>
        <time>2018-08-12T12:16:51Z</time>
      </trkpt>
      <trkpt lat="45.38411" lon="4.63271">
        <ele>1014</ele>
        <time>2018-08-12T12:17:09Z</time>
      </trkpt>
      <trkpt lat="45.38397" lon="4.63271">
        <ele>1012</ele>
        <time>2018-08-12T12:17:30Z</time>
      </trkpt>
      <trkpt lat="45.38389" lon="4.63271">
        <ele>1011</ele>
        <time>2018-08-12T12:17:49Z</time>
      </trkpt>
      <trkpt lat="45.38379" lon="4.63273">
        <ele>1010</ele>
        <time>2018-08-12T12:18:07Z</time>
      </trkpt>
      <trkpt lat="45.38371" lon="4.63278">
        <ele>1009</ele>
        <time>2018-08-12T12:18:28Z</time>
      </trkpt>
      <trkpt lat="45.38361" lon="4.63287">
        <ele>1007</ele>
        <time>2018-08-12T12:18:44Z</time>
      </trkpt>
      <trkpt lat="45.38358" lon="4.63292">
        <ele>1007</ele>
        <time>2018-08-12T12:18:50Z</time>
      </trkpt>
      <trkpt lat="45.38359" lon="4.63311">
        <ele>1006</ele>
        <time>2018-08-12T12:19:06Z</time>
      </trkpt>
      <trkpt lat="45.38362" lon="4.63328">
        <ele>1006</ele>
        <time>2018-08-12T12:19:21Z</time>
      </trkpt>
      <trkpt lat="45.38366" lon="4.63348">
        <ele>1001</ele>
        <time>2018-08-12T12:19:39Z</time>
      </trkpt>
      <trkpt lat="45.38365" lon="4.63368">
        <ele>1000</ele>
        <time>2018-08-12T12:19:54Z</time>
      </trkpt>
      <trkpt lat="45.38367" lon="4.63378">
        <ele>999</ele>
        <time>2018-08-12T12:20:02Z</time>
      </trkpt>
      <trkpt lat="45.3837" lon="4.63398">
        <ele>998</ele>
        <time>2018-08-12T12:20:19Z</time>
      </trkpt>
      <trkpt lat="45.38381" lon="4.63428">
        <ele>991</ele>
        <time>2018-08-12T12:20:41Z</time>
      </trkpt>
      <trkpt lat="45.38385" lon="4.63453">
        <ele>990</ele>
        <time>2018-08-12T12:21:00Z</time>
      </trkpt>
      <trkpt lat="45.38384" lon="4.6346">
        <ele>989</ele>
        <time>2018-08-12T12:21:11Z</time>
      </trkpt>
      <trkpt lat="45.38384" lon="4.63463">
        <ele>989</ele>
        <time>2018-08-12T12:21:13Z</time>
      </trkpt>
      <trkpt lat="45.38386" lon="4.63473">
        <ele>989</ele>
        <time>2018-08-12T12:21:20Z</time>
      </trkpt>
      <trkpt lat="45.3839" lon="4.635">
        <ele>983</ele>
        <time>2018-08-12T12:21:39Z</time>
      </trkpt>
      <trkpt lat="45.38393" lon="4.6353">
        <ele>982</ele>
        <time>2018-08-12T12:22:03Z</time>
      </trkpt>
      <trkpt lat="45.38399" lon="4.63567">
        <ele>981</ele>
        <time>2018-08-12T12:22:23Z</time>
      </trkpt>
      <trkpt lat="45.38406" lon="4.63608">
        <ele>975</ele>
        <time>2018-08-12T12:22:48Z</time>
      </trkpt>
      <trkpt lat="45.38404" lon="4.6365">
        <ele>973</ele>
        <time>2018-08-12T12:23:12Z</time>
      </trkpt>
      <trkpt lat="45.384" lon="4.63675">
        <ele>968</ele>
        <time>2018-08-12T12:23:31Z</time>
      </trkpt>
      <trkpt lat="45.38402" lon="4.63707">
        <ele>964</ele>
        <time>2018-08-12T12:23:55Z</time>
      </trkpt>
      <trkpt lat="45.38403" lon="4.63714">
        <ele>964</ele>
        <time>2018-08-12T12:23:59Z</time>
      </trkpt>
      <trkpt lat="45.38403" lon="4.6376">
        <ele>960</ele>
        <time>2018-08-12T12:24:24Z</time>
      </trkpt>
      <trkpt lat="45.38404" lon="4.63799">
        <ele>955</ele>
        <time>2018-08-12T12:24:44Z</time>
      </trkpt>
      <trkpt lat="45.38406" lon="4.63846">
        <ele>948</ele>
        <time>2018-08-12T12:25:08Z</time>
      </trkpt>
      <trkpt lat="45.38411" lon="4.63871">
        <ele>943</ele>
        <time>2018-08-12T12:25:24Z</time>
      </trkpt>
      <trkpt lat="45.38418" lon="4.63891">
        <ele>949</ele>
        <time>2018-08-12T12:25:37Z</time>
      </trkpt>
      <trkpt lat="45.38434" lon="4.63914">
        <ele>946</ele>
        <time>2018-08-12T12:25:56Z</time>
      </trkpt>
      <trkpt lat="45.38448" lon="4.63946">
        <ele>936</ele>
        <time>2018-08-12T12:26:14Z</time>
      </trkpt>
      <trkpt lat="45.38458" lon="4.63963">
        <ele>934</ele>
        <time>2018-08-12T12:26:28Z</time>
      </trkpt>
      <trkpt lat="45.38469" lon="4.63986">
        <ele>933</ele>
        <time>2018-08-12T12:26:44Z</time>
      </trkpt>
      <trkpt lat="45.38471" lon="4.63989">
        <ele>933</ele>
        <time>2018-08-12T12:26:46Z</time>
      </trkpt>
      <trkpt lat="45.38484" lon="4.64013">
        <ele>923</ele>
        <time>2018-08-12T12:27:08Z</time>
      </trkpt>
      <trkpt lat="45.38491" lon="4.6403">
        <ele>921</ele>
        <time>2018-08-12T12:27:19Z</time>
      </trkpt>
      <trkpt lat="45.38495" lon="4.64047">
        <ele>918</ele>
        <time>2018-08-12T12:27:31Z</time>
      </trkpt>
      <trkpt lat="45.38505" lon="4.6406">
        <ele>923</ele>
        <time>2018-08-12T12:27:44Z</time>
      </trkpt>
      <trkpt lat="45.38519" lon="4.64077">
        <ele>922</ele>
        <time>2018-08-12T12:28:01Z</time>
      </trkpt>
      <trkpt lat="45.38534" lon="4.64101">
        <ele>912</ele>
        <time>2018-08-12T12:28:18Z</time>
      </trkpt>
      <trkpt lat="45.38545" lon="4.64131">
        <ele>910</ele>
        <time>2018-08-12T12:28:33Z</time>
      </trkpt>
      <trkpt lat="45.38551" lon="4.64155">
        <ele>908</ele>
        <time>2018-08-12T12:28:46Z</time>
      </trkpt>
      <trkpt lat="45.38563" lon="4.64176">
        <ele>897</ele>
        <time>2018-08-12T12:29:02Z</time>
      </trkpt>
      <trkpt lat="45.38574" lon="4.64197">
        <ele>894</ele>
        <time>2018-08-12T12:29:20Z</time>
      </trkpt>
      <trkpt lat="45.38576" lon="4.64197">
        <ele>895</ele>
        <time>2018-08-12T12:29:21Z</time>
      </trkpt>
      <trkpt lat="45.38582" lon="4.64204">
        <ele>893</ele>
        <time>2018-08-12T12:29:26Z</time>
      </trkpt>
      <trkpt lat="45.38594" lon="4.64217">
        <ele>897</ele>
        <time>2018-08-12T12:29:40Z</time>
      </trkpt>
      <trkpt lat="45.38612" lon="4.64221">
        <ele>897</ele>
        <time>2018-08-12T12:29:53Z</time>
      </trkpt>
      <trkpt lat="45.38635" lon="4.64227">
        <ele>897</ele>
        <time>2018-08-12T12:30:15Z</time>
      </trkpt>
      <trkpt lat="45.38635" lon="4.64228">
        <ele>897</ele>
        <time>2018-08-12T12:30:18Z</time>
      </trkpt>
      <trkpt lat="45.3863" lon="4.64229">
        <ele>897</ele>
        <time>2018-08-12T12:30:20Z</time>
      </trkpt>
      <trkpt lat="45.38599" lon="4.64228">
        <ele>895</ele>
        <time>2018-08-12T12:30:42Z</time>
      </trkpt>
      <trkpt lat="45.38588" lon="4.64234">
        <ele>893</ele>
        <time>2018-08-12T12:30:52Z</time>
      </trkpt>
      <trkpt lat="45.38586" lon="4.64236">
        <ele>892</ele>
        <time>2018-08-12T12:30:54Z</time>
      </trkpt>
      <trkpt lat="45.38587" lon="4.64251">
        <ele>887</ele>
        <time>2018-08-12T12:31:01Z</time>
      </trkpt>
      <trkpt lat="45.3859" lon="4.64257">
        <ele>887</ele>
        <time>2018-08-12T12:31:06Z</time>
      </trkpt>
      <trkpt lat="45.38601" lon="4.64272">
        <ele>887</ele>
        <time>2018-08-12T12:31:19Z</time>
      </trkpt>
      <trkpt lat="45.38603" lon="4.64275">
        <ele>887</ele>
        <time>2018-08-12T12:31:21Z</time>
      </trkpt>
      <trkpt lat="45.38604" lon="4.64281">
        <ele>886</ele>
        <time>2018-08-12T12:31:26Z</time>
      </trkpt>
      <trkpt lat="45.38611" lon="4.64312">
        <ele>884</ele>
        <time>2018-08-12T12:31:43Z</time>
      </trkpt>
      <trkpt lat="45.38613" lon="4.64343">
        <ele>878</ele>
        <time>2018-08-12T12:32:00Z</time>
      </trkpt>
      <trkpt lat="45.38613" lon="4.64349">
        <ele>878</ele>
        <time>2018-08-12T12:32:03Z</time>
      </trkpt>
      <trkpt lat="45.38615" lon="4.64374">
        <ele>877</ele>
        <time>2018-08-12T12:32:17Z</time>
      </trkpt>
      <trkpt lat="45.3861" lon="4.64401">
        <ele>875</ele>
        <time>2018-08-12T12:32:34Z</time>
      </trkpt>
      <trkpt lat="45.3861" lon="4.64403">
        <ele>875</ele>
        <time>2018-08-12T12:32:35Z</time>
      </trkpt>
      <trkpt lat="45.38612" lon="4.64413">
        <ele>875</ele>
        <time>2018-08-12T12:32:40Z</time>
      </trkpt>
      <trkpt lat="45.38617" lon="4.64436">
        <ele>869</ele>
        <time>2018-08-12T12:32:54Z</time>
      </trkpt>
      <trkpt lat="45.38622" lon="4.64467">
        <ele>868</ele>
        <time>2018-08-12T12:33:08Z</time>
      </trkpt>
      <trkpt lat="45.38628" lon="4.64483">
        <ele>868</ele>
        <time>2018-08-12T12:33:16Z</time>
      </trkpt>
      <trkpt lat="45.38641" lon="4.64508">
        <ele>862</ele>
        <time>2018-08-12T12:33:34Z</time>
      </trkpt>
      <trkpt lat="45.38654" lon="4.6452">
        <ele>862</ele>
        <time>2018-08-12T12:33:47Z</time>
      </trkpt>
      <trkpt lat="45.38683" lon="4.64543">
        <ele>859</ele>
        <time>2018-08-12T12:34:05Z</time>
      </trkpt>
      <trkpt lat="45.38687" lon="4.64549">
        <ele>858</ele>
        <time>2018-08-12T12:34:10Z</time>
      </trkpt>
      <trkpt lat="45.387" lon="4.64588">
        <ele>847</ele>
        <time>2018-08-12T12:34:26Z</time>
      </trkpt>
      <trkpt lat="45.38699" lon="4.64596">
        <ele>847</ele>
        <time>2018-08-12T12:34:29Z</time>
      </trkpt>
      <trkpt lat="45.38692" lon="4.64604">
        <ele>847</ele>
        <time>2018-08-12T12:34:41Z</time>
      </trkpt>
      <trkpt lat="45.38687" lon="4.64604">
        <ele>847</ele>
        <time>2018-08-12T12:34:58Z</time>
      </trkpt>
      <trkpt lat="45.38682" lon="4.64608">
        <ele>847</ele>
        <time>2018-08-12T12:35:48Z</time>
      </trkpt>
      <trkpt lat="45.38672" lon="4.64612">
        <ele>847</ele>
        <time>2018-08-12T12:36:32Z</time>
      </trkpt>
      <trkpt lat="45.38668" lon="4.64628">
        <ele>844</ele>
        <time>2018-08-12T12:36:50Z</time>
      </trkpt>
      <trkpt lat="45.38678" lon="4.64642">
        <ele>842</ele>
        <time>2018-08-12T12:37:04Z</time>
      </trkpt>
      <trkpt lat="45.38694" lon="4.64663">
        <ele>841</ele>
        <time>2018-08-12T12:37:23Z</time>
      </trkpt>
      <trkpt lat="45.38704" lon="4.6468">
        <ele>831</ele>
        <time>2018-08-12T12:37:37Z</time>
      </trkpt>
      <trkpt lat="45.38714" lon="4.64691">
        <ele>831</ele>
        <time>2018-08-12T12:37:50Z</time>
      </trkpt>
      <trkpt lat="45.38725" lon="4.64694">
        <ele>831</ele>
        <time>2018-08-12T12:38:06Z</time>
      </trkpt>
      <trkpt lat="45.38745" lon="4.64702">
        <ele>830</ele>
        <time>2018-08-12T12:38:20Z</time>
      </trkpt>
      <trkpt lat="45.38766" lon="4.64712">
        <ele>825</ele>
        <time>2018-08-12T12:38:35Z</time>
      </trkpt>
      <trkpt lat="45.38779" lon="4.64728">
        <ele>823</ele>
        <time>2018-08-12T12:38:49Z</time>
      </trkpt>
      <trkpt lat="45.38784" lon="4.64738">
        <ele>822</ele>
        <time>2018-08-12T12:39:00Z</time>
      </trkpt>
      <trkpt lat="45.38798" lon="4.6472">
        <ele>822</ele>
        <time>2018-08-12T12:39:18Z</time>
      </trkpt>
      <trkpt lat="45.38806" lon="4.64708">
        <ele>822</ele>
        <time>2018-08-12T12:39:30Z</time>
      </trkpt>
      <trkpt lat="45.38808" lon="4.64706">
        <ele>822</ele>
        <time>2018-08-12T12:39:34Z</time>
      </trkpt>
      <trkpt lat="45.38833" lon="4.64676">
        <ele>822</ele>
        <time>2018-08-12T12:39:57Z</time>
      </trkpt>
      <trkpt lat="45.38842" lon="4.64664">
        <ele>818</ele>
        <time>2018-08-12T12:40:13Z</time>
      </trkpt>
      <trkpt lat="45.38844" lon="4.64648">
        <ele>817</ele>
        <time>2018-08-12T12:40:21Z</time>
      </trkpt>
      <trkpt lat="45.38867" lon="4.64624">
        <ele>814</ele>
        <time>2018-08-12T12:40:42Z</time>
      </trkpt>
      <trkpt lat="45.38885" lon="4.64594">
        <ele>812</ele>
        <time>2018-08-12T12:41:03Z</time>
      </trkpt>
      <trkpt lat="45.3889" lon="4.64575">
        <ele>814</ele>
        <time>2018-08-12T12:41:16Z</time>
      </trkpt>
      <trkpt lat="45.38894" lon="4.64552">
        <ele>815</ele>
        <time>2018-08-12T12:41:28Z</time>
      </trkpt>
      <trkpt lat="45.38905" lon="4.6453">
        <ele>814</ele>
        <time>2018-08-12T12:41:42Z</time>
      </trkpt>
      <trkpt lat="45.38908" lon="4.64521">
        <ele>812</ele>
        <time>2018-08-12T12:41:48Z</time>
      </trkpt>
      <trkpt lat="45.38902" lon="4.64512">
        <ele>812</ele>
        <time>2018-08-12T12:41:52Z</time>
      </trkpt>
      <trkpt lat="45.38915" lon="4.645">
        <ele>807</ele>
        <time>2018-08-12T12:42:00Z</time>
      </trkpt>
      <trkpt lat="45.38932" lon="4.64504">
        <ele>800</ele>
        <time>2018-08-12T12:42:07Z</time>
      </trkpt>
      <trkpt lat="45.3894" lon="4.6451">
        <ele>798</ele>
        <time>2018-08-12T12:42:12Z</time>
      </trkpt>
      <trkpt lat="45.3895" lon="4.64541">
        <ele>795</ele>
        <time>2018-08-12T12:42:26Z</time>
      </trkpt>
      <trkpt lat="45.38958" lon="4.6455">
        <ele>793</ele>
        <time>2018-08-12T12:42:35Z</time>
      </trkpt>
      <trkpt lat="45.38961" lon="4.64564">
        <ele>792</ele>
        <time>2018-08-12T12:42:44Z</time>
      </trkpt>
      <trkpt lat="45.38961" lon="4.64591">
        <ele>786</ele>
        <time>2018-08-12T12:42:56Z</time>
      </trkpt>
      <trkpt lat="45.38964" lon="4.64602">
        <ele>785</ele>
        <time>2018-08-12T12:43:05Z</time>
      </trkpt>
      <trkpt lat="45.38969" lon="4.64619">
        <ele>784</ele>
        <time>2018-08-12T12:43:13Z</time>
      </trkpt>
      <trkpt lat="45.38973" lon="4.64626">
        <ele>783</ele>
        <time>2018-08-12T12:43:17Z</time>
      </trkpt>
      <trkpt lat="45.38973" lon="4.64631">
        <ele>783</ele>
        <time>2018-08-12T12:43:20Z</time>
      </trkpt>
      <trkpt lat="45.38973" lon="4.64634">
        <ele>782</ele>
        <time>2018-08-12T12:43:22Z</time>
      </trkpt>
      <trkpt lat="45.38976" lon="4.64654">
        <ele>779</ele>
        <time>2018-08-12T12:43:35Z</time>
      </trkpt>
      <trkpt lat="45.38975" lon="4.64674">
        <ele>774</ele>
        <time>2018-08-12T12:43:48Z</time>
      </trkpt>
      <trkpt lat="45.38981" lon="4.64698">
        <ele>774</ele>
        <time>2018-08-12T12:44:03Z</time>
      </trkpt>
      <trkpt lat="45.38988" lon="4.64727">
        <ele>770</ele>
        <time>2018-08-12T12:44:19Z</time>
      </trkpt>
      <trkpt lat="45.38992" lon="4.64746">
        <ele>764</ele>
        <time>2018-08-12T12:44:32Z</time>
      </trkpt>
      <trkpt lat="45.38998" lon="4.64779">
        <ele>764</ele>
        <time>2018-08-12T12:44:49Z</time>
      </trkpt>
      <trkpt lat="45.39004" lon="4.64808">
        <ele>752</ele>
        <time>2018-08-12T12:45:05Z</time>
      </trkpt>
      <trkpt lat="45.39009" lon="4.64837">
        <ele>750</ele>
        <time>2018-08-12T12:45:20Z</time>
      </trkpt>
      <trkpt lat="45.39012" lon="4.6486">
        <ele>746</ele>
        <time>2018-08-12T12:45:34Z</time>
      </trkpt>
      <trkpt lat="45.39017" lon="4.64893">
        <ele>743</ele>
        <time>2018-08-12T12:45:51Z</time>
      </trkpt>
      <trkpt lat="45.39022" lon="4.64929">
        <ele>738</ele>
        <time>2018-08-12T12:46:12Z</time>
      </trkpt>
      <trkpt lat="45.39023" lon="4.64947">
        <ele>736</ele>
        <time>2018-08-12T12:46:23Z</time>
      </trkpt>
      <trkpt lat="45.39021" lon="4.6496">
        <ele>736</ele>
        <time>2018-08-12T12:46:29Z</time>
      </trkpt>
      <trkpt lat="45.39018" lon="4.64986">
        <ele>735</ele>
        <time>2018-08-12T12:46:43Z</time>
      </trkpt>
      <trkpt lat="45.39018" lon="4.65008">
        <ele>730</ele>
        <time>2018-08-12T12:46:57Z</time>
      </trkpt>
      <trkpt lat="45.39019" lon="4.6504">
        <ele>728</ele>
        <time>2018-08-12T12:47:11Z</time>
      </trkpt>
      <trkpt lat="45.39019" lon="4.65042">
        <ele>728</ele>
        <time>2018-08-12T12:47:12Z</time>
      </trkpt>
      <trkpt lat="45.39026" lon="4.65059">
        <ele>726</ele>
      </trkpt>
      <trkpt lat="45.39066" lon="4.6504">
        <ele>726</ele>
      </trkpt>
      <trkpt lat="45.39088" lon="4.65029">
        <ele>721</ele>
      </trkpt>
      <trkpt lat="45.39105" lon="4.65032">
        <ele>720</ele>
      </trkpt>
      <trkpt lat="45.39128" lon="4.65062">
        <ele>717</ele>
      </trkpt>
      <trkpt lat="45.39134" lon="4.65028">
        <ele>718</ele>
        <time>2018-08-12T12:49:56Z</time>
      </trkpt>
      <trkpt lat="45.39134" lon="4.64995">
        <ele>723</ele>
        <time>2018-08-12T12:50:14Z</time>
      </trkpt>
      <trkpt lat="45.39133" lon="4.64973">
        <ele>725</ele>
        <time>2018-08-12T12:50:26Z</time>
      </trkpt>
      <trkpt lat="45.39129" lon="4.64937">
        <ele>727</ele>
        <time>2018-08-12T12:50:43Z</time>
      </trkpt>
      <trkpt lat="45.39137" lon="4.64893">
        <ele>734</ele>
        <time>2018-08-12T12:51:04Z</time>
      </trkpt>
      <trkpt lat="45.39143" lon="4.64891">
        <ele>734</ele>
        <time>2018-08-12T12:51:08Z</time>
      </trkpt>
      <trkpt lat="45.39161" lon="4.64897">
        <ele>732</ele>
        <time>2018-08-12T12:51:22Z</time>
      </trkpt>
      <trkpt lat="45.39173" lon="4.64912">
        <ele>732</ele>
        <time>2018-08-12T12:51:36Z</time>
      </trkpt>
      <trkpt lat="45.39193" lon="4.6492">
        <ele>731</ele>
        <time>2018-08-12T12:51:55Z</time>
      </trkpt>
      <trkpt lat="45.39221" lon="4.64936">
        <ele>734</ele>
        <time>2018-08-12T12:52:16Z</time>
      </trkpt>
      <trkpt lat="45.39231" lon="4.64953">
        <ele>733</ele>
        <time>2018-08-12T12:52:28Z</time>
      </trkpt>
      <trkpt lat="45.39244" lon="4.64986">
        <ele>731</ele>
        <time>2018-08-12T12:52:45Z</time>
      </trkpt>
      <trkpt lat="45.39246" lon="4.64997">
        <ele>731</ele>
        <time>2018-08-12T12:52:51Z</time>
      </trkpt>
      <trkpt lat="45.39257" lon="4.65012">
        <ele>736</ele>
        <time>2018-08-12T12:53:06Z</time>
      </trkpt>
      <trkpt lat="45.39269" lon="4.65028">
        <ele>739</ele>
        <time>2018-08-12T12:53:21Z</time>
      </trkpt>
      <trkpt lat="45.39289" lon="4.65057">
        <ele>740</ele>
        <time>2018-08-12T12:53:47Z</time>
      </trkpt>
      <trkpt lat="45.3931" lon="4.65081">
        <ele>744</ele>
        <time>2018-08-12T12:54:11Z</time>
      </trkpt>
      <trkpt lat="45.39325" lon="4.65092">
        <ele>742</ele>
        <time>2018-08-12T12:54:30Z</time>
      </trkpt>
      <trkpt lat="45.39337" lon="4.65103">
        <ele>754</ele>
        <time>2018-08-12T12:54:48Z</time>
      </trkpt>
      <trkpt lat="45.39352" lon="4.6511">
        <ele>755</ele>
        <time>2018-08-12T12:55:05Z</time>
      </trkpt>
      <trkpt lat="45.39366" lon="4.65125">
        <ele>756</ele>
        <time>2018-08-12T12:55:21Z</time>
      </trkpt>
      <trkpt lat="45.39389" lon="4.6515">
        <ele>758</ele>
        <time>2018-08-12T12:55:44Z</time>
      </trkpt>
      <trkpt lat="45.39405" lon="4.6518">
        <ele>750</ele>
        <time>2018-08-12T12:56:07Z</time>
      </trkpt>
      <trkpt lat="45.39424" lon="4.65201">
        <ele>760</ele>
        <time>2018-08-12T12:56:30Z</time>
      </trkpt>
      <trkpt lat="45.39445" lon="4.65216">
        <ele>760</ele>
        <time>2018-08-12T12:56:56Z</time>
      </trkpt>
      <trkpt lat="45.39466" lon="4.65233">
        <ele>760</ele>
        <time>2018-08-12T12:57:17Z</time>
      </trkpt>
      <trkpt lat="45.39481" lon="4.65245">
        <ele>761</ele>
        <time>2018-08-12T12:57:36Z</time>
      </trkpt>
      <trkpt lat="45.39505" lon="4.65261">
        <ele>761</ele>
        <time>2018-08-12T12:57:59Z</time>
      </trkpt>
      <trkpt lat="45.39524" lon="4.65283">
        <ele>760</ele>
        <time>2018-08-12T12:58:22Z</time>
      </trkpt>
      <trkpt lat="45.39532" lon="4.65292">
        <ele>760</ele>
        <time>2018-08-12T12:58:30Z</time>
      </trkpt>
      <trkpt lat="45.39535" lon="4.65292">
        <ele>760</ele>
        <time>2018-08-12T12:58:33Z</time>
      </trkpt>
      <trkpt lat="45.39554" lon="4.6532">
        <ele>759</ele>
        <time>2018-08-12T12:58:52Z</time>
      </trkpt>
      <trkpt lat="45.39566" lon="4.65339">
        <ele>750</ele>
        <time>2018-08-12T12:59:07Z</time>
      </trkpt>
      <trkpt lat="45.39578" lon="4.65356">
        <ele>748</ele>
        <time>2018-08-12T12:59:21Z</time>
      </trkpt>
      <trkpt lat="45.39587" lon="4.65368">
        <ele>754</ele>
        <time>2018-08-12T12:59:36Z</time>
      </trkpt>
      <trkpt lat="45.39593" lon="4.65371">
        <ele>754</ele>
        <time>2018-08-12T12:59:45Z</time>
      </trkpt>
      <trkpt lat="45.39606" lon="4.65377">
        <ele>753</ele>
        <time>2018-08-12T12:59:59Z</time>
      </trkpt>
      <trkpt lat="45.39627" lon="4.65391">
        <ele>753</ele>
        <time>2018-08-12T13:00:15Z</time>
      </trkpt>
      <trkpt lat="45.39629" lon="4.65392">
        <ele>753</ele>
        <time>2018-08-12T13:00:16Z</time>
      </trkpt>
      <trkpt lat="45.39654" lon="4.65399">
        <ele>754</ele>
        <time>2018-08-12T13:00:27Z</time>
      </trkpt>
      <trkpt lat="45.39658" lon="4.65401">
        <ele>753</ele>
        <time>2018-08-12T13:00:29Z</time>
      </trkpt>
      <trkpt lat="45.39669" lon="4.65436">
        <ele>751</ele>
        <time>2018-08-12T13:00:51Z</time>
      </trkpt>
      <trkpt lat="45.39688" lon="4.65461">
        <ele>749</ele>
        <time>2018-08-12T13:01:10Z</time>
      </trkpt>
      <trkpt lat="45.39694" lon="4.6548">
        <ele>747</ele>
        <time>2018-08-12T13:01:23Z</time>
      </trkpt>
      <trkpt lat="45.39711" lon="4.655">
        <ele>749</ele>
        <time>2018-08-12T13:01:39Z</time>
      </trkpt>
      <trkpt lat="45.3972" lon="4.65524">
        <ele>735</ele>
        <time>2018-08-12T13:01:54Z</time>
      </trkpt>
      <trkpt lat="45.39724" lon="4.65542">
        <ele>733</ele>
        <time>2018-08-12T13:02:05Z</time>
      </trkpt>
      <trkpt lat="45.39728" lon="4.65568">
        <ele>732</ele>
        <time>2018-08-12T13:02:22Z</time>
      </trkpt>
      <trkpt lat="45.39729" lon="4.6559">
        <ele>721</ele>
        <time>2018-08-12T13:02:36Z</time>
      </trkpt>
      <trkpt lat="45.3973" lon="4.65592">
        <ele>721</ele>
        <time>2018-08-12T13:02:37Z</time>
      </trkpt>
      <trkpt lat="45.39737" lon="4.65619">
        <ele>716</ele>
        <time>2018-08-12T13:02:50Z</time>
      </trkpt>
      <trkpt lat="45.39742" lon="4.65636">
        <ele>714</ele>
        <time>2018-08-12T13:03:03Z</time>
      </trkpt>
      <trkpt lat="45.39753" lon="4.65659">
        <ele>721</ele>
        <time>2018-08-12T13:03:16Z</time>
      </trkpt>
      <trkpt lat="45.39761" lon="4.65683">
        <ele>715</ele>
        <time>2018-08-12T13:03:32Z</time>
      </trkpt>
      <trkpt lat="45.39771" lon="4.65713">
        <ele>713</ele>
        <time>2018-08-12T13:03:47Z</time>
      </trkpt>
      <trkpt lat="45.39781" lon="4.65742">
        <ele>710</ele>
        <time>2018-08-12T13:04:04Z</time>
      </trkpt>
      <trkpt lat="45.39784" lon="4.6576">
        <ele>696</ele>
        <time>2018-08-12T13:04:16Z</time>
      </trkpt>
      <trkpt lat="45.39787" lon="4.65787">
        <ele>693</ele>
        <time>2018-08-12T13:04:26Z</time>
      </trkpt>
      <trkpt lat="45.3979" lon="4.65803">
        <ele>691</ele>
        <time>2018-08-12T13:04:36Z</time>
      </trkpt>
      <trkpt lat="45.39791" lon="4.65815">
        <ele>690</ele>
        <time>2018-08-12T13:04:45Z</time>
      </trkpt>
      <trkpt lat="45.39789" lon="4.65835">
        <ele>674</ele>
        <time>2018-08-12T13:04:56Z</time>
      </trkpt>
      <trkpt lat="45.39794" lon="4.65864">
        <ele>673</ele>
        <time>2018-08-12T13:05:07Z</time>
      </trkpt>
      <trkpt lat="45.39788" lon="4.6587">
        <ele>671</ele>
        <time>2018-08-12T13:05:15Z</time>
      </trkpt>
      <trkpt lat="45.39797" lon="4.65887">
        <ele>670</ele>
        <time>2018-08-12T13:05:26Z</time>
      </trkpt>
      <trkpt lat="45.39816" lon="4.65877">
        <ele>673</ele>
        <time>2018-08-12T13:05:43Z</time>
      </trkpt>
      <trkpt lat="45.39829" lon="4.6589">
        <ele>672</ele>
        <time>2018-08-12T13:05:58Z</time>
      </trkpt>
      <trkpt lat="45.39847" lon="4.65907">
        <ele>681</ele>
        <time>2018-08-12T13:06:13Z</time>
      </trkpt>
      <trkpt lat="45.39866" lon="4.65924">
        <ele>672</ele>
        <time>2018-08-12T13:06:30Z</time>
      </trkpt>
      <trkpt lat="45.39881" lon="4.65943">
        <ele>673</ele>
        <time>2018-08-12T13:06:45Z</time>
      </trkpt>
      <trkpt lat="45.39902" lon="4.65964">
        <ele>672</ele>
        <time>2018-08-12T13:07:03Z</time>
      </trkpt>
      <trkpt lat="45.39935" lon="4.65991">
        <ele>681</ele>
        <time>2018-08-12T13:07:28Z</time>
      </trkpt>
      <trkpt lat="45.39971" lon="4.66004">
        <ele>674</ele>
        <time>2018-08-12T13:07:50Z</time>
      </trkpt>
      <trkpt lat="45.39996" lon="4.66029">
        <ele>674</ele>
        <time>2018-08-12T13:08:12Z</time>
      </trkpt>
      <trkpt lat="45.40015" lon="4.66038">
        <ele>681</ele>
        <time>2018-08-12T13:08:23Z</time>
      </trkpt>
      <trkpt lat="45.40025" lon="4.66043">
        <ele>680</ele>
        <time>2018-08-12T13:08:30Z</time>
      </trkpt>
      <trkpt lat="45.40041" lon="4.66043">
        <ele>682</ele>
        <time>2018-08-12T13:08:39Z</time>
      </trkpt>
      <trkpt lat="45.40066" lon="4.66088">
        <ele>669</ele>
        <time>2018-08-12T13:09:02Z</time>
      </trkpt>
      <trkpt lat="45.40078" lon="4.66097">
        <ele>670</ele>
        <time>2018-08-12T13:09:10Z</time>
      </trkpt>
      <trkpt lat="45.40084" lon="4.66102">
        <ele>674</ele>
        <time>2018-08-12T13:09:14Z</time>
      </trkpt>
      <trkpt lat="45.40099" lon="4.66117">
        <ele>673</ele>
        <time>2018-08-12T13:09:27Z</time>
      </trkpt>
      <trkpt lat="45.40116" lon="4.66143">
        <ele>671</ele>
        <time>2018-08-12T13:09:44Z</time>
      </trkpt>
      <trkpt lat="45.40129" lon="4.66149">
        <ele>672</ele>
        <time>2018-08-12T13:09:52Z</time>
      </trkpt>
      <trkpt lat="45.40148" lon="4.66162">
        <ele>672</ele>
        <time>2018-08-12T13:10:07Z</time>
      </trkpt>
      <trkpt lat="45.40164" lon="4.66171">
        <ele>669</ele>
        <time>2018-08-12T13:10:16Z</time>
      </trkpt>
      <trkpt lat="45.40172" lon="4.6618">
        <ele>669</ele>
        <time>2018-08-12T13:10:23Z</time>
      </trkpt>
      <trkpt lat="45.40181" lon="4.6621">
        <ele>667</ele>
        <time>2018-08-12T13:10:40Z</time>
      </trkpt>
      <trkpt lat="45.40181" lon="4.66224">
        <ele>666</ele>
        <time>2018-08-12T13:10:47Z</time>
      </trkpt>
      <trkpt lat="45.4018" lon="4.66238">
        <ele>665</ele>
        <time>2018-08-12T13:10:53Z</time>
      </trkpt>
      <trkpt lat="45.40179" lon="4.66253">
        <ele>662</ele>
        <time>2018-08-12T13:11:01Z</time>
      </trkpt>
      <trkpt lat="45.40178" lon="4.66259">
        <ele>662</ele>
        <time>2018-08-12T13:11:04Z</time>
      </trkpt>
      <trkpt lat="45.40179" lon="4.66266">
        <ele>662</ele>
        <time>2018-08-12T13:11:07Z</time>
      </trkpt>
      <trkpt lat="45.40174" lon="4.66295">
        <ele>661</ele>
        <time>2018-08-12T13:11:20Z</time>
      </trkpt>
      <trkpt lat="45.40173" lon="4.66298">
        <ele>661</ele>
        <time>2018-08-12T13:11:22Z</time>
      </trkpt>
      <trkpt lat="45.40172" lon="4.66335">
        <ele>658</ele>
        <time>2018-08-12T13:11:40Z</time>
      </trkpt>
      <trkpt lat="45.40172" lon="4.66356">
        <ele>656</ele>
        <time>2018-08-12T13:11:50Z</time>
      </trkpt>
      <trkpt lat="45.40173" lon="4.6637">
        <ele>655</ele>
        <time>2018-08-12T13:11:58Z</time>
      </trkpt>
      <trkpt lat="45.40193" lon="4.66387">
        <ele>654</ele>
        <time>2018-08-12T13:12:14Z</time>
      </trkpt>
      <trkpt lat="45.40211" lon="4.66393">
        <ele>654</ele>
        <time>2018-08-12T13:12:28Z</time>
      </trkpt>
      <trkpt lat="45.40233" lon="4.66401">
        <ele>653</ele>
        <time>2018-08-12T13:12:44Z</time>
      </trkpt>
      <trkpt lat="45.40235" lon="4.66402">
        <ele>653</ele>
        <time>2018-08-12T13:12:46Z</time>
      </trkpt>
      <trkpt lat="45.40256" lon="4.6641">
        <ele>650</ele>
        <time>2018-08-12T13:13:00Z</time>
      </trkpt>
      <trkpt lat="45.40274" lon="4.66414">
        <ele>649</ele>
        <time>2018-08-12T13:13:13Z</time>
      </trkpt>
      <trkpt lat="45.40282" lon="4.66418">
        <ele>643</ele>
        <time>2018-08-12T13:13:20Z</time>
      </trkpt>
      <trkpt lat="45.40286" lon="4.66425">
        <ele>643</ele>
        <time>2018-08-12T13:13:26Z</time>
      </trkpt>
      <trkpt lat="45.40288" lon="4.66427">
        <ele>642</ele>
        <time>2018-08-12T13:13:29Z</time>
      </trkpt>
      <trkpt lat="45.40303" lon="4.66441">
        <ele>641</ele>
        <time>2018-08-12T13:13:43Z</time>
      </trkpt>
      <trkpt lat="45.40315" lon="4.66453">
        <ele>640</ele>
        <time>2018-08-12T13:13:54Z</time>
      </trkpt>
      <trkpt lat="45.40325" lon="4.66478">
        <ele>638</ele>
        <time>2018-08-12T13:14:10Z</time>
      </trkpt>
      <trkpt lat="45.40325" lon="4.66498">
        <ele>636</ele>
        <time>2018-08-12T13:14:25Z</time>
      </trkpt>
      <trkpt lat="45.40326" lon="4.66511">
        <ele>634</ele>
        <time>2018-08-12T13:14:33Z</time>
      </trkpt>
      <trkpt lat="45.40327" lon="4.66518">
        <ele>634</ele>
        <time>2018-08-12T13:14:37Z</time>
      </trkpt>
      <trkpt lat="45.40337" lon="4.66529">
        <ele>627</ele>
        <time>2018-08-12T13:14:47Z</time>
      </trkpt>
      <trkpt lat="45.4035" lon="4.66537">
        <ele>626</ele>
        <time>2018-08-12T13:14:59Z</time>
      </trkpt>
      <trkpt lat="45.40367" lon="4.66544">
        <ele>625</ele>
        <time>2018-08-12T13:15:12Z</time>
      </trkpt>
      <trkpt lat="45.40373" lon="4.66547">
        <ele>624</ele>
        <time>2018-08-12T13:15:21Z</time>
      </trkpt>
      <trkpt lat="45.40386" lon="4.66553">
        <ele>623</ele>
        <time>2018-08-12T13:15:32Z</time>
      </trkpt>
      <trkpt lat="45.40401" lon="4.66559">
        <ele>622</ele>
        <time>2018-08-12T13:15:41Z</time>
      </trkpt>
      <trkpt lat="45.4041" lon="4.66562">
        <ele>621</ele>
        <time>2018-08-12T13:15:46Z</time>
      </trkpt>
      <trkpt lat="45.40425" lon="4.66576">
        <ele>614</ele>
        <time>2018-08-12T13:16:00Z</time>
      </trkpt>
      <trkpt lat="45.40428" lon="4.66588">
        <ele>612</ele>
        <time>2018-08-12T13:16:08Z</time>
      </trkpt>
      <trkpt lat="45.4043" lon="4.66598">
        <ele>611</ele>
        <time>2018-08-12T13:16:13Z</time>
      </trkpt>
      <trkpt lat="45.4044" lon="4.66615">
        <ele>608</ele>
        <time>2018-08-12T13:16:25Z</time>
      </trkpt>
      <trkpt lat="45.4045" lon="4.66621">
        <ele>606</ele>
        <time>2018-08-12T13:16:35Z</time>
      </trkpt>
      <trkpt lat="45.40453" lon="4.66623">
        <ele>606</ele>
        <time>2018-08-12T13:16:37Z</time>
      </trkpt>
      <trkpt lat="45.40455" lon="4.66624">
        <ele>606</ele>
        <time>2018-08-12T13:16:39Z</time>
      </trkpt>
      <trkpt lat="45.40459" lon="4.66631">
        <ele>605</ele>
        <time>2018-08-12T13:16:45Z</time>
      </trkpt>
      <trkpt lat="45.40468" lon="4.66645">
        <ele>604</ele>
        <time>2018-08-12T13:17:04Z</time>
      </trkpt>
      <trkpt lat="45.40476" lon="4.66641">
        <ele>603</ele>
        <time>2018-08-12T13:17:21Z</time>
      </trkpt>
      <trkpt lat="45.40481" lon="4.66649">
        <ele>602</ele>
        <time>2018-08-12T13:17:44Z</time>
      </trkpt>
      <trkpt lat="45.40495" lon="4.66667">
        <ele>598</ele>
        <time>2018-08-12T13:18:01Z</time>
      </trkpt>
      <trkpt lat="45.40512" lon="4.66682">
        <ele>592</ele>
        <time>2018-08-12T13:18:17Z</time>
      </trkpt>
      <trkpt lat="45.40527" lon="4.66698">
        <ele>590</ele>
        <time>2018-08-12T13:18:32Z</time>
      </trkpt>
      <trkpt lat="45.40536" lon="4.66707">
        <ele>589</ele>
        <time>2018-08-12T13:18:43Z</time>
      </trkpt>
      <trkpt lat="45.40539" lon="4.66711">
        <ele>589</ele>
        <time>2018-08-12T13:18:46Z</time>
      </trkpt>
      <trkpt lat="45.4056" lon="4.6673">
        <ele>586</ele>
        <time>2018-08-12T13:19:05Z</time>
      </trkpt>
      <trkpt lat="45.40561" lon="4.66734">
        <ele>585</ele>
        <time>2018-08-12T13:19:07Z</time>
      </trkpt>
      <trkpt lat="45.40565" lon="4.66736">
        <ele>584</ele>
        <time>2018-08-12T13:19:11Z</time>
      </trkpt>
      <trkpt lat="45.40572" lon="4.66743">
        <ele>582</ele>
        <time>2018-08-12T13:19:19Z</time>
      </trkpt>
      <trkpt lat="45.4058" lon="4.6675">
        <ele>580</ele>
        <time>2018-08-12T13:19:25Z</time>
      </trkpt>
      <trkpt lat="45.4059" lon="4.6676">
        <ele>575</ele>
        <time>2018-08-12T13:19:33Z</time>
      </trkpt>
      <trkpt lat="45.40592" lon="4.66764">
        <ele>575</ele>
        <time>2018-08-12T13:19:36Z</time>
      </trkpt>
      <trkpt lat="45.40597" lon="4.66769">
        <ele>574</ele>
        <time>2018-08-12T13:19:41Z</time>
      </trkpt>
      <trkpt lat="45.406" lon="4.66776">
        <ele>573</ele>
        <time>2018-08-12T13:19:46Z</time>
      </trkpt>
      <trkpt lat="45.40615" lon="4.66792">
        <ele>572</ele>
        <time>2018-08-12T13:20:01Z</time>
      </trkpt>
      <trkpt lat="45.40632" lon="4.66806">
        <ele>570</ele>
        <time>2018-08-12T13:20:17Z</time>
      </trkpt>
      <trkpt lat="45.40644" lon="4.66817">
        <ele>568</ele>
        <time>2018-08-12T13:20:25Z</time>
      </trkpt>
      <trkpt lat="45.40653" lon="4.66828">
        <ele>566</ele>
        <time>2018-08-12T13:20:36Z</time>
      </trkpt>
      <trkpt lat="45.40655" lon="4.66832">
        <ele>565</ele>
        <time>2018-08-12T13:20:39Z</time>
      </trkpt>
      <trkpt lat="45.40662" lon="4.66838">
        <ele>566</ele>
        <time>2018-08-12T13:20:46Z</time>
      </trkpt>
      <trkpt lat="45.40676" lon="4.66852">
        <ele>560</ele>
        <time>2018-08-12T13:21:01Z</time>
      </trkpt>
      <trkpt lat="45.40686" lon="4.66864">
        <ele>559</ele>
        <time>2018-08-12T13:21:21Z</time>
      </trkpt>
      <trkpt lat="45.40703" lon="4.6688">
        <ele>558</ele>
        <time>2018-08-12T13:21:40Z</time>
      </trkpt>
      <trkpt lat="45.40724" lon="4.66895">
        <ele>556</ele>
        <time>2018-08-12T13:22:01Z</time>
      </trkpt>
      <trkpt lat="45.40747" lon="4.66899">
        <ele>554</ele>
        <time>2018-08-12T13:22:26Z</time>
      </trkpt>
      <trkpt lat="45.40759" lon="4.66907">
        <ele>546</ele>
        <time>2018-08-12T13:22:38Z</time>
      </trkpt>
      <trkpt lat="45.4076" lon="4.6691">
        <ele>546</ele>
        <time>2018-08-12T13:22:41Z</time>
      </trkpt>
      <trkpt lat="45.40762" lon="4.66901">
        <ele>544</ele>
        <time>2018-08-12T13:23:10Z</time>
      </trkpt>
      <trkpt lat="45.40752" lon="4.66898">
        <ele>545</ele>
        <time>2018-08-12T13:23:31Z</time>
      </trkpt>
      <trkpt lat="45.40767" lon="4.66912">
        <ele>544</ele>
        <time>2018-08-12T13:23:56Z</time>
      </trkpt>
      <trkpt lat="45.40779" lon="4.66926">
        <ele>547</ele>
        <time>2018-08-12T13:24:11Z</time>
      </trkpt>
      <trkpt lat="45.40787" lon="4.66934">
        <ele>546</ele>
        <time>2018-08-12T13:24:21Z</time>
      </trkpt>
      <trkpt lat="45.40814" lon="4.66946">
        <ele>542</ele>
        <time>2018-08-12T13:24:36Z</time>
      </trkpt>
      <trkpt lat="45.40822" lon="4.66963">
        <ele>543</ele>
        <time>2018-08-12T13:24:48Z</time>
      </trkpt>
      <trkpt lat="45.40837" lon="4.66981">
        <ele>530</ele>
        <time>2018-08-12T13:25:05Z</time>
      </trkpt>
      <trkpt lat="45.40851" lon="4.66994">
        <ele>530</ele>
        <time>2018-08-12T13:25:16Z</time>
      </trkpt>
      <trkpt lat="45.40868" lon="4.67007">
        <ele>529</ele>
        <time>2018-08-12T13:25:29Z</time>
      </trkpt>
      <trkpt lat="45.40882" lon="4.67026">
        <ele>527</ele>
        <time>2018-08-12T13:25:44Z</time>
      </trkpt>
      <trkpt lat="45.40883" lon="4.67028">
        <ele>527</ele>
        <time>2018-08-12T13:25:45Z</time>
      </trkpt>
      <trkpt lat="45.40894" lon="4.67044">
        <ele>527</ele>
        <time>2018-08-12T13:25:57Z</time>
      </trkpt>
      <trkpt lat="45.40898" lon="4.67051">
        <ele>526</ele>
        <time>2018-08-12T13:26:02Z</time>
      </trkpt>
      <trkpt lat="45.4091" lon="4.67077">
        <ele>522</ele>
        <time>2018-08-12T13:26:18Z</time>
      </trkpt>
      <trkpt lat="45.40914" lon="4.67086">
        <ele>521</ele>
        <time>2018-08-12T13:26:24Z</time>
      </trkpt>
      <trkpt lat="45.40918" lon="4.67099">
        <ele>516</ele>
        <time>2018-08-12T13:26:32Z</time>
      </trkpt>
      <trkpt lat="45.4093" lon="4.67119">
        <ele>515</ele>
        <time>2018-08-12T13:26:46Z</time>
      </trkpt>
      <trkpt lat="45.40944" lon="4.67145">
        <ele>515</ele>
        <time>2018-08-12T13:27:05Z</time>
      </trkpt>
      <trkpt lat="45.4095" lon="4.6715">
        <ele>514</ele>
        <time>2018-08-12T13:27:18Z</time>
      </trkpt>
      <trkpt lat="45.40952" lon="4.67153">
        <ele>514</ele>
        <time>2018-08-12T13:27:21Z</time>
      </trkpt>
      <trkpt lat="45.40956" lon="4.67163">
        <ele>513</ele>
        <time>2018-08-12T13:27:28Z</time>
      </trkpt>
      <trkpt lat="45.40958" lon="4.6717">
        <ele>515</ele>
        <time>2018-08-12T13:27:32Z</time>
      </trkpt>
      <trkpt lat="45.40962" lon="4.67176">
        <ele>514</ele>
        <time>2018-08-12T13:27:36Z</time>
      </trkpt>
      <trkpt lat="45.40965" lon="4.67181">
        <ele>514</ele>
        <time>2018-08-12T13:27:39Z</time>
      </trkpt>
      <trkpt lat="45.40972" lon="4.67204">
        <ele>514</ele>
        <time>2018-08-12T13:27:53Z</time>
      </trkpt>
      <trkpt lat="45.40976" lon="4.67218">
        <ele>513</ele>
        <time>2018-08-12T13:28:01Z</time>
      </trkpt>
      <trkpt lat="45.40981" lon="4.67242">
        <ele>512</ele>
        <time>2018-08-12T13:28:16Z</time>
      </trkpt>
      <trkpt lat="45.40985" lon="4.67266">
        <ele>512</ele>
        <time>2018-08-12T13:28:28Z</time>
      </trkpt>
      <trkpt lat="45.40985" lon="4.67268">
        <ele>512</ele>
        <time>2018-08-12T13:28:29Z</time>
      </trkpt>
      <trkpt lat="45.4099" lon="4.67291">
        <ele>513</ele>
        <time>2018-08-12T13:28:42Z</time>
      </trkpt>
      <trkpt lat="45.40994" lon="4.67319">
        <ele>511</ele>
        <time>2018-08-12T13:28:56Z</time>
      </trkpt>
      <trkpt lat="45.41001" lon="4.67352">
        <ele>502</ele>
        <time>2018-08-12T13:29:12Z</time>
      </trkpt>
      <trkpt lat="45.41006" lon="4.6738">
        <ele>500</ele>
        <time>2018-08-12T13:29:27Z</time>
      </trkpt>
      <trkpt lat="45.41011" lon="4.67402">
        <ele>501</ele>
        <time>2018-08-12T13:29:42Z</time>
      </trkpt>
      <trkpt lat="45.41012" lon="4.6743">
        <ele>500</ele>
        <time>2018-08-12T13:29:57Z</time>
      </trkpt>
      <trkpt lat="45.41011" lon="4.67439">
        <ele>499</ele>
        <time>2018-08-12T13:30:01Z</time>
      </trkpt>
      <trkpt lat="45.41008" lon="4.67471">
        <ele>497</ele>
        <time>2018-08-12T13:30:16Z</time>
      </trkpt>
      <trkpt lat="45.41007" lon="4.67487">
        <ele>498</ele>
        <time>2018-08-12T13:30:25Z</time>
      </trkpt>
      <trkpt lat="45.41006" lon="4.67499">
        <ele>499</ele>
        <time>2018-08-12T13:30:31Z</time>
      </trkpt>
      <trkpt lat="45.41004" lon="4.67519">
        <ele>495</ele>
        <time>2018-08-12T13:30:43Z</time>
      </trkpt>
      <trkpt lat="45.41003" lon="4.67526">
        <ele>495</ele>
        <time>2018-08-12T13:30:48Z</time>
      </trkpt>
      <trkpt lat="45.41002" lon="4.67535">
        <ele>494</ele>
        <time>2018-08-12T13:30:53Z</time>
      </trkpt>
      <trkpt lat="45.41001" lon="4.67562">
        <ele>493</ele>
        <time>2018-08-12T13:31:05Z</time>
      </trkpt>
      <trkpt lat="45.40998" lon="4.67593">
        <ele>496</ele>
        <time>2018-08-12T13:31:20Z</time>
      </trkpt>
      <trkpt lat="45.40996" lon="4.67617">
        <ele>497</ele>
        <time>2018-08-12T13:31:31Z</time>
      </trkpt>
      <trkpt lat="45.40994" lon="4.67643">
        <ele>495</ele>
        <time>2018-08-12T13:31:45Z</time>
      </trkpt>
      <trkpt lat="45.40992" lon="4.6767">
        <ele>490</ele>
        <time>2018-08-12T13:31:59Z</time>
      </trkpt>
      <trkpt lat="45.40991" lon="4.67704">
        <ele>489</ele>
        <time>2018-08-12T13:32:16Z</time>
      </trkpt>
      <trkpt lat="45.40989" lon="4.67735">
        <ele>486</ele>
        <time>2018-08-12T13:32:30Z</time>
      </trkpt>
      <trkpt lat="45.40988" lon="4.67752">
        <ele>480</ele>
        <time>2018-08-12T13:32:38Z</time>
      </trkpt>
      <trkpt lat="45.40989" lon="4.67775">
        <ele>480</ele>
        <time>2018-08-12T13:32:51Z</time>
      </trkpt>
      <trkpt lat="45.40991" lon="4.67811">
        <ele>476</ele>
        <time>2018-08-12T13:33:09Z</time>
      </trkpt>
      <trkpt lat="45.40993" lon="4.67839">
        <ele>469</ele>
        <time>2018-08-12T13:33:24Z</time>
      </trkpt>
      <trkpt lat="45.40995" lon="4.67864">
        <ele>469</ele>
        <time>2018-08-12T13:33:37Z</time>
      </trkpt>
      <trkpt lat="45.40995" lon="4.67903">
        <ele>466</ele>
        <time>2018-08-12T13:33:57Z</time>
      </trkpt>
      <trkpt lat="45.40993" lon="4.67942">
        <ele>461</ele>
        <time>2018-08-12T13:34:17Z</time>
      </trkpt>
      <trkpt lat="45.40989" lon="4.67973">
        <ele>459</ele>
        <time>2018-08-12T13:34:33Z</time>
      </trkpt>
      <trkpt lat="45.40983" lon="4.68007">
        <ele>455</ele>
      </trkpt>
      <trkpt lat="45.40979" lon="4.68058">
        <ele>453</ele>
      </trkpt>
      <trkpt lat="45.41092" lon="4.6801">
        <ele>455</ele>
      </trkpt>
      <trkpt lat="45.41132" lon="4.67991">
        <ele>453</ele>
      </trkpt>
      <trkpt lat="45.41172" lon="4.67963">
        <ele>448</ele>
      </trkpt>
      <trkpt lat="45.41269" lon="4.67884">
        <ele>434</ele>
      </trkpt>
      <trkpt lat="45.41311" lon="4.6788">
        <ele>430</ele>
      </trkpt>
      <trkpt lat="45.4138" lon="4.67824">
        <ele>425</ele>
      </trkpt>
      <trkpt lat="45.41417" lon="4.6782">
        <ele>426</ele>
      </trkpt>
      <trkpt lat="45.41577" lon="4.67868">
        <ele>414</ele>
      </trkpt>
      <trkpt lat="45.41703" lon="4.679">
        <ele>434</ele>
      </trkpt>
    </trkseg>
  </trk>
</gpx>